Observation data for Happy on 05/24/2020      Previous  Date  Next       Current Mesonet Observations  Soil Data  Daily Summary Page  Observations in Plain Language
KHA2 240500Z 14009KT 16/12 A2985 RMK A01 T01620116  RH  074%=      5-min Rain = 0
KHA2 240501Z 14010KT 16/12 A2985 RMK A01 T01620115  RH  074%=      5-min Rain = 0
KHA2 240502Z 14010KT 16/12 A2985 RMK A01 T01620116  RH  074%=      5-min Rain = 0
KHA2 240503Z 14010KT 16/12 A2985 RMK A01 T01620115  RH  074%=      5-min Rain = 0
KHA2 240504Z 15011KT 16/12 A2985 RMK A01 T01630116  RH  074%=      5-min Rain = 0
KHA2 240505Z 15010KT 16/12 A2985 RMK A01 T01630115  RH  073%=      5-min Rain = 0
KHA2 240506Z 15010KT 16/12 A2985 RMK A01 T01630116  RH  073%=      5-min Rain = 0
KHA2 240507Z 16010KT 16/12 A2985 RMK A01 T01630115  RH  073%=      5-min Rain = 0
KHA2 240508Z 15009KT 16/12 A2985 RMK A01 T01630115  RH  073%=      5-min Rain = 0
KHA2 240509Z 15009KT 16/12 A2985 RMK A01 T01620115  RH  074%=      5-min Rain = 0
KHA2 240510Z 15009KT 16/12 A2985 RMK A01 T01620115  RH  074%=      5-min Rain = 0
KHA2 240511Z 15010KT 16/12 A2985 RMK A01 T01620115  RH  074%=      5-min Rain = 0
KHA2 240512Z 15010KT 16/12 A2985 RMK A01 T01620115  RH  074%=      5-min Rain = 0
KHA2 240513Z 15010KT 16/12 A2985 RMK A01 T01620116  RH  074%=      5-min Rain = 0
KHA2 240514Z 16009KT 16/12 A2985 RMK A01 T01620115  RH  074%=      5-min Rain = 0
KHA2 240515Z 16009KT 16/12 A2985 RMK A01 T01620116  RH  074%=      5-min Rain = 0
KHA2 240516Z 17009KT 16/12 A2985 RMK A01 T01620116  RH  074%=      5-min Rain = 0
KHA2 240517Z 16010KT 16/12 A2985 RMK A01 T01620116  RH  074%=      5-min Rain = 0
KHA2 240518Z 16010KT 16/12 A2985 RMK A01 T01620116  RH  074%=      5-min Rain = 0
KHA2 240519Z 16010KT 16/12 A2984 RMK A01 T01620116  RH  074%=      5-min Rain = 0
KHA2 240520Z 16010KT 16/12 A2984 RMK A01 T01620116  RH  074%=      5-min Rain = 0
KHA2 240521Z 16010KT 16/12 A2984 RMK A01 T01620116  RH  074%=      5-min Rain = 0
KHA2 240522Z 16010KT 16/12 A2985 RMK A01 T01620116  RH  074%=      5-min Rain = 0
KHA2 240523Z 16009KT 16/12 A2984 RMK A01 T01610116  RH  075%=      5-min Rain = 0
KHA2 240524Z 17009KT 16/12 A2985 RMK A01 T01610116  RH  075%=      5-min Rain = 0
KHA2 240525Z 17010KT 16/12 A2985 RMK A01 T01600116  RH  075%=      5-min Rain = 0
KHA2 240526Z 17010KT 16/12 A2985 RMK A01 T01590116  RH  075%=      5-min Rain = 0
KHA2 240527Z 17010KT 16/12 A2985 RMK A01 T01590116  RH  076%=      5-min Rain = 0
KHA2 240528Z 16010KT 16/12 A2985 RMK A01 T01590116  RH  076%=      5-min Rain = 0
KHA2 240529Z 17009KT 16/12 A2985 RMK A01 T01590116  RH  076%=      5-min Rain = 0
KHA2 240530Z 17009KT 16/12 A2985 RMK A01 T01580116  RH  076%=      5-min Rain = 0
KHA2 240531Z 16009KT 16/12 A2985 RMK A01 T01580116  RH  076%=      5-min Rain = 0
KHA2 240532Z 16009KT 16/12 A2985 RMK A01 T01570116  RH  077%=      5-min Rain = 0
KHA2 240533Z 16009KT 16/12 A2985 RMK A01 T01570116  RH  077%=      5-min Rain = 0
KHA2 240534Z 16009KT 16/12 A2985 RMK A01 T01570116  RH  077%=      5-min Rain = 0
KHA2 240535Z 16009KT 16/12 A2985 RMK A01 T01560116  RH  077%=      5-min Rain = 0
KHA2 240536Z 17009KT 16/12 A2985 RMK A01 T01560116  RH  077%=      5-min Rain = 0
KHA2 240537Z 17009KT 16/12 A2985 RMK A01 T01560116  RH  077%=      5-min Rain = 0
KHA2 240538Z 16009KT 16/12 A2985 RMK A01 T01560116  RH  077%=      5-min Rain = 0
KHA2 240539Z 16009KT 16/12 A2985 RMK A01 T01560116  RH  077%=      5-min Rain = 0
KHA2 240540Z 16010KT 16/12 A2985 RMK A01 T01560116  RH  077%=      5-min Rain = 0
KHA2 240541Z 16010KT 16/12 A2985 RMK A01 T01570117  RH  077%=      5-min Rain = 0
KHA2 240542Z 15010KT 16/12 A2985 RMK A01 T01570117  RH  077%=      5-min Rain = 0
KHA2 240543Z 15011KT 16/12 A2985 RMK A01 T01570117  RH  077%=      5-min Rain = 0
KHA2 240544Z 15011KT 16/12 A2985 RMK A01 T01570117  RH  077%=      5-min Rain = 0
KHA2 240545Z 15010KT 16/12 A2985 RMK A01 T01570117  RH  077%=      5-min Rain = 0
KHA2 240546Z 15010KT 16/12 A2985 RMK A01 T01580118  RH  077%=      5-min Rain = 0
KHA2 240547Z 16010KT 16/12 A2985 RMK A01 T01570117  RH  077%=      5-min Rain = 0
KHA2 240548Z 16009KT 16/12 A2985 RMK A01 T01570118  RH  077%=      5-min Rain = 0
KHA2 240549Z 16010KT 16/12 A2985 RMK A01 T01570118  RH  077%=      5-min Rain = 0
KHA2 240550Z 16010KT 16/12 A2985 RMK A01 T01570118  RH  077%=      5-min Rain = 0
KHA2 240551Z 16010KT 16/12 A2985 RMK A01 T01580118  RH  077%=      5-min Rain = 0
KHA2 240552Z 16010KT 16/12 A2985 RMK A01 T01580118  RH  077%=      5-min Rain = 0
KHA2 240553Z 16011KT 16/12 A2985 RMK A01 T01570118  RH  077%=      5-min Rain = 0
KHA2 240554Z 16010KT 16/12 A2986 RMK A01 T01570118  RH  077%=      5-min Rain = 0
KHA2 240555Z 15011KT 16/12 A2986 RMK A01 T01570118  RH  077%=      5-min Rain = 0
KHA2 240556Z 15011KT 16/12 A2985 RMK A01 T01570118  RH  077%=      5-min Rain = 0
KHA2 240557Z 16011KT 16/12 A2985 RMK A01 T01570118  RH  077%=      5-min Rain = 0
KHA2 240558Z 16011KT 16/12 A2985 RMK A01 T01580118  RH  077%=      5-min Rain = 0
KHA2 240559Z 17011KT 16/12 A2985 RMK A01 T01570118  RH  077%=      5-min Rain = 0
KHA2 240600Z 17011KT 16/12 A2985 RMK A01 T01570118  RH  077%=      5-min Rain = 0
KHA2 240601Z 17011KT 16/12 A2985 RMK A01 T01580118  RH  077%=      5-min Rain = 0
KHA2 240602Z 17011KT 16/12 A2985 RMK A01 T01570117  RH  077%=      5-min Rain = 0
KHA2 240603Z 17012KT 16/12 A2985 RMK A01 T01570117  RH  077%=      5-min Rain = 0
KHA2 240604Z 17012KT 16/12 A2985 RMK A01 T01580117  RH  077%=      5-min Rain = 0
KHA2 240605Z 17012KT 16/12 A2985 RMK A01 T01580118  RH  077%=      5-min Rain = 0
KHA2 240606Z 17012KT 16/12 A2985 RMK A01 T01590117  RH  076%=      5-min Rain = 0
KHA2 240607Z 17011KT 16/12 A2985 RMK A01 T01590117  RH  076%=      5-min Rain = 0
KHA2 240608Z 17012KT 16/12 A2985 RMK A01 T01590117  RH  076%=      5-min Rain = 0
KHA2 240609Z 17012KT 16/12 A2985 RMK A01 T01600116  RH  076%=      5-min Rain = 0
KHA2 240610Z 17012KT 16/12 A2985 RMK A01 T01600116  RH  075%=      5-min Rain = 0
KHA2 240611Z 17011KT 16/12 A2985 RMK A01 T01600116  RH  075%=      5-min Rain = 0
KHA2 240612Z 17011KT 16/12 A2985 RMK A01 T01600116  RH  075%=      5-min Rain = 0
KHA2 240613Z 17012KT 16/12 A2985 RMK A01 T01600116  RH  075%=      5-min Rain = 0
KHA2 240614Z 16012KT 16/12 A2985 RMK A01 T01600115  RH  075%=      5-min Rain = 0
KHA2 240615Z 17013KT 16/12 A2985 RMK A01 T01610115  RH  074%=      5-min Rain = 0
KHA2 240616Z 17013KT 16/11 A2985 RMK A01 T01610114  RH  074%=      5-min Rain = 0
KHA2 240617Z 17013KT 16/11 A2985 RMK A01 T01620114  RH  073%=      5-min Rain = 0
KHA2 240618Z 17013KT 16/11 A2985 RMK A01 T01620113  RH  073%=      5-min Rain = 0
KHA2 240619Z 17013KT 16/11 A2985 RMK A01 T01630113  RH  072%=      5-min Rain = 0
KHA2 240620Z 17013KT 16/11 A2985 RMK A01 T01630113  RH  072%=      5-min Rain = 0
KHA2 240621Z 17013KT 16/11 A2984 RMK A01 T01630112  RH  072%=      5-min Rain = 0
KHA2 240622Z 17013KT 16/11 A2984 RMK A01 T01640111  RH  071%=      5-min Rain = 0
KHA2 240623Z 17015KT 17/11 A2984 RMK A01 T01650111  RH  070%=      5-min Rain = 0
KHA2 240624Z 18015KT 17/11 A2984 RMK A01 T01660110  RH  070%=      5-min Rain = 0
KHA2 240625Z 18016KT 17/11 A2984 RMK A01 T01670110  RH  069%=      5-min Rain = 0
KHA2 240626Z 18016KT 17/11 A2984 RMK A01 T01680109  RH  068%=      5-min Rain = 0
KHA2 240627Z 17016KT 17/11 A2984 RMK A01 T01690109  RH  068%=      5-min Rain = 0
KHA2 240628Z 17015KT 17/11 A2984 RMK A01 T01700108  RH  067%=      5-min Rain = 0
KHA2 240629Z 17015KT 17/11 A2984 RMK A01 T01700108  RH  067%=      5-min Rain = 0
KHA2 240630Z 17016KT 17/11 A2984 RMK A01 T01700107  RH  067%=      5-min Rain = 0
KHA2 240631Z 17016KT 17/11 A2984 RMK A01 T01710107  RH  066%=      5-min Rain = 0
KHA2 240632Z 17016KT 17/11 A2984 RMK A01 T01720107  RH  065%=      5-min Rain = 0
KHA2 240633Z 17016KT 17/11 A2984 RMK A01 T01730106  RH  065%=      5-min Rain = 0
KHA2 240634Z 17017KT 17/11 A2984 RMK A01 T01740106  RH  064%=      5-min Rain = 0
KHA2 240635Z 18015KT 17/11 A2984 RMK A01 T01740106  RH  064%=      5-min Rain = 0
KHA2 240636Z 18015KT 17/11 A2984 RMK A01 T01740106  RH  064%=      5-min Rain = 0
KHA2 240637Z 18015KT 17/11 A2984 RMK A01 T01740105  RH  064%=      5-min Rain = 0
KHA2 240638Z 18015KT 17/11 A2984 RMK A01 T01740105  RH  064%=      5-min Rain = 0
KHA2 240639Z 18015KT 17/11 A2984 RMK A01 T01740105  RH  064%=      5-min Rain = 0
KHA2 240640Z 18014KT 17/11 A2984 RMK A01 T01740105  RH  064%=      5-min Rain = 0
KHA2 240641Z 18016KT 17/11 A2984 RMK A01 T01740106  RH  064%=      5-min Rain = 0
KHA2 240642Z 18016KT 17/11 A2983 RMK A01 T01740106  RH  064%=      5-min Rain = 0
KHA2 240643Z 18016KT 17/11 A2983 RMK A01 T01730106  RH  065%=      5-min Rain = 0
KHA2 240644Z 18016KT 17/11 A2983 RMK A01 T01730106  RH  065%=      5-min Rain = 0
KHA2 240645Z 18015KT 17/11 A2983 RMK A01 T01740106  RH  065%=      5-min Rain = 0
KHA2 240646Z 18015KT 17/11 A2983 RMK A01 T01730106  RH  064%=      5-min Rain = 0
KHA2 240647Z 18015KT 17/11 A2983 RMK A01 T01730106  RH  064%=      5-min Rain = 0
KHA2 240648Z 18014KT 17/11 A2984 RMK A01 T01730106  RH  064%=      5-min Rain = 0
KHA2 240649Z 18016KT 17/11 A2984 RMK A01 T01740106  RH  064%=      5-min Rain = 0
KHA2 240650Z 18016KT 17/11 A2984 RMK A01 T01740105  RH  064%=      5-min Rain = 0
KHA2 240651Z 18015KT 17/11 A2984 RMK A01 T01740105  RH  064%=      5-min Rain = 0
KHA2 240652Z 18014KT 17/11 A2984 RMK A01 T01740105  RH  064%=      5-min Rain = 0
KHA2 240653Z 18014KT 17/11 A2984 RMK A01 T01740105  RH  064%=      5-min Rain = 0
KHA2 240654Z 18016KT 17/11 A2984 RMK A01 T01730105  RH  064%=      5-min Rain = 0
KHA2 240655Z 18015KT 17/10 A2984 RMK A01 T01740104  RH  064%=      5-min Rain = 0
KHA2 240656Z 18014KT 17/10 A2984 RMK A01 T01740104  RH  063%=      5-min Rain = 0
KHA2 240657Z 18016KT 17/10 A2984 RMK A01 T01740104  RH  063%=      5-min Rain = 0
KHA2 240658Z 18015KT 17/10 A2984 RMK A01 T01740104  RH  063%=      5-min Rain = 0
KHA2 240659Z 17014KT 18/10 A2984 RMK A01 T01750104  RH  063%=      5-min Rain = 0
KHA2 240700Z 17015KT 18/10 A2984 RMK A01 T01750104  RH  063%=      5-min Rain = 0
KHA2 240701Z 17015KT 18/11 A2984 RMK A01 T01750105  RH  063%=      5-min Rain = 0
KHA2 240702Z 18014KT 17/11 A2984 RMK A01 T01740105  RH  064%=      5-min Rain = 0
KHA2 240703Z 17015KT 17/11 A2984 RMK A01 T01740105  RH  064%=      5-min Rain = 0
KHA2 240704Z 18014KT 17/11 A2984 RMK A01 T01740105  RH  064%=      5-min Rain = 0
KHA2 240705Z 18015KT 17/11 A2985 RMK A01 T01740105  RH  064%=      5-min Rain = 0
KHA2 240706Z 17014KT 17/11 A2985 RMK A01 T01730105  RH  064%=      5-min Rain = 0
KHA2 240707Z 17014KT 17/11 A2985 RMK A01 T01730105  RH  064%=      5-min Rain = 0
KHA2 240708Z 17013KT 17/11 A2985 RMK A01 T01730105  RH  065%=      5-min Rain = 0
KHA2 240709Z 17014KT 17/11 A2985 RMK A01 T01720105  RH  065%=      5-min Rain = 0
KHA2 240710Z 17013KT 17/11 A2985 RMK A01 T01710106  RH  065%=      5-min Rain = 0
KHA2 240711Z 17013KT 17/11 A2985 RMK A01 T01710106  RH  065%=      5-min Rain = 0
KHA2 240712Z 17014KT 17/11 A2985 RMK A01 T01700106  RH  066%=      5-min Rain = 0
KHA2 240713Z 17013KT 17/11 A2985 RMK A01 T01700106  RH  066%=      5-min Rain = 0
KHA2 240714Z 17013KT 17/11 A2985 RMK A01 T01700106  RH  066%=      5-min Rain = 0
KHA2 240715Z 17013KT 17/11 A2985 RMK A01 T01690106  RH  066%=      5-min Rain = 0
KHA2 240716Z 17014KT 17/11 A2985 RMK A01 T01690107  RH  066%=      5-min Rain = 0
KHA2 240717Z 16013KT 17/11 A2985 RMK A01 T01690107  RH  066%=      5-min Rain = 0
KHA2 240718Z 16013KT 17/11 A2985 RMK A01 T01690106  RH  067%=      5-min Rain = 0
KHA2 240719Z 16013KT 17/11 A2985 RMK A01 T01690106  RH  067%=      5-min Rain = 0
KHA2 240720Z 16012KT 17/11 A2985 RMK A01 T01690106  RH  067%=      5-min Rain = 0
KHA2 240721Z 16013KT 17/11 A2985 RMK A01 T01680106  RH  067%=      5-min Rain = 0
KHA2 240722Z 15013KT 17/11 A2985 RMK A01 T01670106  RH  067%=      5-min Rain = 0
KHA2 240723Z 16013KT 17/11 A2985 RMK A01 T01670106  RH  067%=      5-min Rain = 0
KHA2 240724Z 16013KT 17/11 A2985 RMK A01 T01670107  RH  067%=      5-min Rain = 0
KHA2 240725Z 16013KT 17/11 A2986 RMK A01 T01670107  RH  067%=      5-min Rain = 0
KHA2 240726Z 16013KT 17/11 A2986 RMK A01 T01680107  RH  067%=      5-min Rain = 0
KHA2 240727Z 15011KT 17/11 A2986 RMK A01 T01680107  RH  067%=      5-min Rain = 0
KHA2 240728Z 16013KT 17/11 A2986 RMK A01 T01670106  RH  068%=      5-min Rain = 0
KHA2 240729Z 15012KT 17/11 A2986 RMK A01 T01670107  RH  068%=      5-min Rain = 0
KHA2 240730Z 15011KT 17/11 A2986 RMK A01 T01660107  RH  068%=      5-min Rain = 0
KHA2 240731Z 15013KT 17/11 A2986 RMK A01 T01660107  RH  068%=      5-min Rain = 0
KHA2 240732Z 15012KT 17/11 A2986 RMK A01 T01650107  RH  068%=      5-min Rain = 0
KHA2 240733Z 15013KT 17/11 A2986 RMK A01 T01650107  RH  068%=      5-min Rain = 0
KHA2 240734Z 15012KT 16/11 A2986 RMK A01 T01640106  RH  069%=      5-min Rain = 0
KHA2 240735Z 15012KT 16/11 A2986 RMK A01 T01640107  RH  069%=      5-min Rain = 0
KHA2 240736Z 15011KT 16/11 A2986 RMK A01 T01640107  RH  069%=      5-min Rain = 0
KHA2 240737Z 15012KT 16/11 A2986 RMK A01 T01640106  RH  069%=      5-min Rain = 0
KHA2 240738Z 16011KT 16/11 A2986 RMK A01 T01640106  RH  069%=      5-min Rain = 0
KHA2 240739Z 16012KT 16/11 A2986 RMK A01 T01630106  RH  069%=      5-min Rain = 0
KHA2 240740Z 16010KT 16/11 A2986 RMK A01 T01640106  RH  069%=      5-min Rain = 0
KHA2 240741Z 16011KT 16/11 A2986 RMK A01 T01630106  RH  069%=      5-min Rain = 0
KHA2 240742Z 16010KT 16/11 A2986 RMK A01 T01640106  RH  069%=      5-min Rain = 0
KHA2 240743Z 16009KT 16/11 A2986 RMK A01 T01630106  RH  069%=      5-min Rain = 0
KHA2 240744Z 15010KT 16/11 A2986 RMK A01 T01620106  RH  069%=      5-min Rain = 0
KHA2 240745Z 16009KT 16/11 A2986 RMK A01 T01610106  RH  070%=      5-min Rain = 0
KHA2 240746Z 16010KT 16/11 A2986 RMK A01 T01610106  RH  070%=      5-min Rain = 0
KHA2 240747Z 16009KT 16/11 A2986 RMK A01 T01610106  RH  070%=      5-min Rain = 0
KHA2 240748Z 16010KT 16/11 A2986 RMK A01 T01600106  RH  070%=      5-min Rain = 0
KHA2 240749Z 16009KT 16/11 A2986 RMK A01 T01590106  RH  071%=      5-min Rain = 0
KHA2 240750Z 16011KT 16/11 A2986 RMK A01 T01590106  RH  071%=      5-min Rain = 0
KHA2 240751Z 16010KT 16/11 A2986 RMK A01 T01590106  RH  071%=      5-min Rain = 0
KHA2 240752Z 16010KT 16/11 A2986 RMK A01 T01590107  RH  071%=      5-min Rain = 0
KHA2 240753Z 16011KT 16/11 A2986 RMK A01 T01590107  RH  071%=      5-min Rain = 0
KHA2 240754Z 16011KT 16/11 A2986 RMK A01 T01590107  RH  071%=      5-min Rain = 0
KHA2 240755Z 16011KT 16/11 A2986 RMK A01 T01590108  RH  072%=      5-min Rain = 0
KHA2 240756Z 17011KT 16/11 A2986 RMK A01 T01590108  RH  072%=      5-min Rain = 0
KHA2 240757Z 17010KT 16/11 A2986 RMK A01 T01580108  RH  072%=      5-min Rain = 0
KHA2 240758Z 17010KT 16/11 A2986 RMK A01 T01580108  RH  072%=      5-min Rain = 0
KHA2 240759Z 16011KT 16/11 A2986 RMK A01 T01580108  RH  072%=      5-min Rain = 0
KHA2 240800Z 16011KT 16/11 A2987 RMK A01 T01580108  RH  073%=      5-min Rain = 0
KHA2 240801Z 16011KT 16/11 A2987 RMK A01 T01570108  RH  073%=      5-min Rain = 0
KHA2 240802Z 17011KT 16/11 A2986 RMK A01 T01580109  RH  073%=      5-min Rain = 0
KHA2 240803Z 16010KT 16/11 A2986 RMK A01 T01570108  RH  073%=      5-min Rain = 0
KHA2 240804Z 17011KT 16/11 A2986 RMK A01 T01580109  RH  073%=      5-min Rain = 0
KHA2 240805Z 16010KT 16/11 A2986 RMK A01 T01570109  RH  073%=      5-min Rain = 0
KHA2 240806Z 16010KT 16/11 A2986 RMK A01 T01570108  RH  073%=      5-min Rain = 0
KHA2 240807Z 16011KT 16/11 A2986 RMK A01 T01570109  RH  073%=      5-min Rain = 0
KHA2 240808Z 16010KT 16/11 A2986 RMK A01 T01570109  RH  073%=      5-min Rain = 0
KHA2 240809Z 16010KT 16/11 A2986 RMK A01 T01570109  RH  073%=      5-min Rain = 0
KHA2 240810Z 17010KT 16/11 A2986 RMK A01 T01560108  RH  073%=      5-min Rain = 0
KHA2 240811Z 16010KT 16/11 A2986 RMK A01 T01560108  RH  073%=      5-min Rain = 0
KHA2 240812Z 17010KT 16/11 A2986 RMK A01 T01550108  RH  074%=      5-min Rain = 0
KHA2 240813Z 17011KT 16/11 A2986 RMK A01 T01550108  RH  074%=      5-min Rain = 0
KHA2 240814Z 17010KT 16/11 A2986 RMK A01 T01560109  RH  073%=      5-min Rain = 0
KHA2 240815Z 17009KT 16/11 A2986 RMK A01 T01550108  RH  074%=      5-min Rain = 0
KHA2 240816Z 17010KT 16/11 A2986 RMK A01 T01550108  RH  074%=      5-min Rain = 0
KHA2 240817Z 17009KT 15/11 A2986 RMK A01 T01540108  RH  074%=      5-min Rain = 0
KHA2 240818Z 18010KT 15/11 A2986 RMK A01 T01540108  RH  074%=      5-min Rain = 0
KHA2 240819Z 18010KT 15/11 A2986 RMK A01 T01540108  RH  074%=      5-min Rain = 0
KHA2 240820Z 17009KT 15/11 A2986 RMK A01 T01530108  RH  074%=      5-min Rain = 0
KHA2 240821Z 17010KT 15/11 A2986 RMK A01 T01530108  RH  075%=      5-min Rain = 0
KHA2 240822Z 18010KT 15/11 A2986 RMK A01 T01520108  RH  075%=      5-min Rain = 0
KHA2 240823Z 18010KT 15/11 A2986 RMK A01 T01520108  RH  075%=      5-min Rain = 0
KHA2 240824Z 18010KT 15/11 A2986 RMK A01 T01520108  RH  075%=      5-min Rain = 0
KHA2 240825Z 18011KT 15/11 A2986 RMK A01 T01530108  RH  074%=      5-min Rain = 0
KHA2 240826Z 17011KT 15/11 A2986 RMK A01 T01530108  RH  074%=      5-min Rain = 0
KHA2 240827Z 18010KT 15/11 A2986 RMK A01 T01530108  RH  074%=      5-min Rain = 0
KHA2 240828Z 18010KT 15/11 A2986 RMK A01 T01530108  RH  074%=      5-min Rain = 0
KHA2 240829Z 18010KT 15/11 A2986 RMK A01 T01530108  RH  074%=      5-min Rain = 0
KHA2 240830Z 18010KT 15/11 A2986 RMK A01 T01540109  RH  074%=      5-min Rain = 0
KHA2 240831Z 18011KT 15/11 A2986 RMK A01 T01540109  RH  075%=      5-min Rain = 0
KHA2 240832Z 18011KT 15/11 A2986 RMK A01 T01540109  RH  075%=      5-min Rain = 0
KHA2 240833Z 18010KT 15/11 A2986 RMK A01 T01540109  RH  075%=      5-min Rain = 0
KHA2 240834Z 18010KT 15/11 A2986 RMK A01 T01530109  RH  075%=      5-min Rain = 0
KHA2 240835Z 18010KT 15/11 A2985 RMK A01 T01530109  RH  075%=      5-min Rain = 0
KHA2 240836Z 18009KT 15/11 A2986 RMK A01 T01530109  RH  075%=      5-min Rain = 0
KHA2 240837Z 19010KT 15/11 A2986 RMK A01 T01530109  RH  075%=      5-min Rain = 0
KHA2 240838Z 18010KT 15/11 A2986 RMK A01 T01530109  RH  075%=      5-min Rain = 0
KHA2 240839Z 18010KT 15/11 A2985 RMK A01 T01530109  RH  075%=      5-min Rain = 0
KHA2 240840Z 19010KT 15/11 A2985 RMK A01 T01520109  RH  076%=      5-min Rain = 0
KHA2 240841Z 18010KT 15/11 A2986 RMK A01 T01510109  RH  076%=      5-min Rain = 0
KHA2 240842Z 18010KT 15/11 A2985 RMK A01 T01500109  RH  076%=      5-min Rain = 0
KHA2 240843Z 18010KT 15/11 A2985 RMK A01 T01500110  RH  077%=      5-min Rain = 0
KHA2 240844Z 18010KT 15/11 A2986 RMK A01 T01500110  RH  077%=      5-min Rain = 0
KHA2 240845Z 18010KT 15/11 A2986 RMK A01 T01490110  RH  077%=      5-min Rain = 0
KHA2 240846Z 18009KT 15/11 A2985 RMK A01 T01480110  RH  077%=      5-min Rain = 0
KHA2 240847Z 18009KT 15/11 A2985 RMK A01 T01480109  RH  078%=      5-min Rain = 0
KHA2 240848Z 18009KT 15/11 A2985 RMK A01 T01470109  RH  078%=      5-min Rain = 0
KHA2 240849Z 18009KT 15/11 A2985 RMK A01 T01460109  RH  078%=      5-min Rain = 0
KHA2 240850Z 18010KT 15/11 A2985 RMK A01 T01460109  RH  079%=      5-min Rain = 0
KHA2 240851Z 18010KT 15/11 A2985 RMK A01 T01460109  RH  079%=      5-min Rain = 0
KHA2 240852Z 18009KT 15/11 A2986 RMK A01 T01450109  RH  079%=      5-min Rain = 0
KHA2 240853Z 18009KT 15/11 A2986 RMK A01 T01450110  RH  079%=      5-min Rain = 0
KHA2 240854Z 17009KT 15/11 A2986 RMK A01 T01450110  RH  080%=      5-min Rain = 0
KHA2 240855Z 17009KT 15/11 A2986 RMK A01 T01450110  RH  080%=      5-min Rain = 0
KHA2 240856Z 17009KT 15/11 A2986 RMK A01 T01450110  RH  080%=      5-min Rain = 0
KHA2 240857Z 17009KT 14/11 A2986 RMK A01 T01440110  RH  080%=      5-min Rain = 0
KHA2 240858Z 17009KT 14/11 A2986 RMK A01 T01440110  RH  080%=      5-min Rain = 0
KHA2 240859Z 17008KT 14/11 A2986 RMK A01 T01440110  RH  080%=      5-min Rain = 0
KHA2 240900Z 18009KT 14/11 A2986 RMK A01 T01440110  RH  080%=      5-min Rain = 0
KHA2 240901Z 17008KT 14/11 A2986 RMK A01 T01430110  RH  081%=      5-min Rain = 0
KHA2 240902Z 17008KT 14/11 A2986 RMK A01 T01430110  RH  081%=      5-min Rain = 0
KHA2 240903Z 17008KT 14/11 A2986 RMK A01 T01420110  RH  081%=      5-min Rain = 0
KHA2 240904Z 17008KT 14/11 A2986 RMK A01 T01420111  RH  081%=      5-min Rain = 0
KHA2 240905Z 17008KT 14/11 A2986 RMK A01 T01420111  RH  082%=      5-min Rain = 0
KHA2 240906Z 17008KT 14/11 A2986 RMK A01 T01420111  RH  082%=      5-min Rain = 0
KHA2 240907Z 16008KT 14/11 A2986 RMK A01 T01410111  RH  082%=      5-min Rain = 0
KHA2 240908Z 16008KT 14/11 A2986 RMK A01 T01410111  RH  083%=      5-min Rain = 0
KHA2 240909Z 16008KT 14/11 A2986 RMK A01 T01400112  RH  083%=      5-min Rain = 0
KHA2 240910Z 16008KT 14/11 A2987 RMK A01 T01400111  RH  083%=      5-min Rain = 0
KHA2 240911Z 15008KT 14/11 A2987 RMK A01 T01390111  RH  083%=      5-min Rain = 0
KHA2 240912Z 15008KT 14/11 A2987 RMK A01 T01380111  RH  083%=      5-min Rain = 0
KHA2 240913Z 14008KT 14/11 A2987 RMK A01 T01380110  RH  083%=      5-min Rain = 0
KHA2 240914Z 14009KT 14/11 A2987 RMK A01 T01370109  RH  083%=      5-min Rain = 0
KHA2 240915Z 14009KT 14/11 A2987 RMK A01 T01350108  RH  083%=      5-min Rain = 0
KHA2 240916Z 14009KT 13/11 A2987 RMK A01 T01340108  RH  084%=      5-min Rain = 0
KHA2 240917Z 14008KT 13/11 A2987 RMK A01 T01340108  RH  085%=      5-min Rain = 0
KHA2 240918Z 14008KT 13/11 A2987 RMK A01 T01330108  RH  085%=      5-min Rain = 0
KHA2 240919Z 14008KT 13/11 A2987 RMK A01 T01320108  RH  085%=      5-min Rain = 0
KHA2 240920Z 14008KT 13/11 A2987 RMK A01 T01320108  RH  085%=      5-min Rain = 0
KHA2 240921Z 14009KT 13/11 A2987 RMK A01 T01310108  RH  086%=      5-min Rain = 0
KHA2 240922Z 14009KT 13/11 A2987 RMK A01 T01320109  RH  086%=      5-min Rain = 0
KHA2 240923Z 14009KT 13/11 A2987 RMK A01 T01330110  RH  086%=      5-min Rain = 0
KHA2 240924Z 14009KT 13/11 A2987 RMK A01 T01340111  RH  086%=      5-min Rain = 0
KHA2 240925Z 14009KT 14/11 A2987 RMK A01 T01350112  RH  086%=      5-min Rain = 0
KHA2 240926Z 14009KT 14/11 A2987 RMK A01 T01350112  RH  086%=      5-min Rain = 0
KHA2 240927Z 14009KT 14/11 A2987 RMK A01 T01360112  RH  085%=      5-min Rain = 0
KHA2 240928Z 15008KT 14/11 A2987 RMK A01 T01370112  RH  085%=      5-min Rain = 0
KHA2 240929Z 15009KT 14/11 A2987 RMK A01 T01370112  RH  085%=      5-min Rain = 0
KHA2 240930Z 15010KT 14/11 A2987 RMK A01 T01380113  RH  085%=      5-min Rain = 0
KHA2 240931Z 15009KT 14/11 A2987 RMK A01 T01380113  RH  085%=      5-min Rain = 0
KHA2 240932Z 14009KT 14/11 A2987 RMK A01 T01380113  RH  085%=      5-min Rain = 0
KHA2 240933Z 14009KT 14/11 A2987 RMK A01 T01380113  RH  085%=      5-min Rain = 0
KHA2 240934Z 14009KT 14/11 A2987 RMK A01 T01380113  RH  085%=      5-min Rain = 0
KHA2 240935Z 14009KT 14/11 A2987 RMK A01 T01380113  RH  085%=      5-min Rain = 0
KHA2 240936Z 15009KT 14/11 A2987 RMK A01 T01380112  RH  085%=      5-min Rain = 0
KHA2 240937Z 15009KT 14/11 A2987 RMK A01 T01380113  RH  085%=      5-min Rain = 0
KHA2 240938Z 15008KT 14/11 A2987 RMK A01 T01380113  RH  085%=      5-min Rain = 0
KHA2 240939Z 15008KT 14/11 A2987 RMK A01 T01380113  RH  085%=      5-min Rain = 0
KHA2 240940Z 15008KT 14/11 A2987 RMK A01 T01390114  RH  085%=      5-min Rain = 0
KHA2 240941Z 15009KT 14/11 A2987 RMK A01 T01390114  RH  085%=      5-min Rain = 0
KHA2 240942Z 15008KT 14/11 A2987 RMK A01 T01390113  RH  085%=      5-min Rain = 0
KHA2 240943Z 15008KT 14/11 A2987 RMK A01 T01390114  RH  085%=      5-min Rain = 0
KHA2 240944Z 15008KT 14/11 A2987 RMK A01 T01390114  RH  085%=      5-min Rain = 0
KHA2 240945Z 15008KT 14/11 A2987 RMK A01 T01390114  RH  085%=      5-min Rain = 0
KHA2 240946Z 16007KT 14/12 A2987 RMK A01 T01390115  RH  085%=      5-min Rain = 0
KHA2 240947Z 16007KT 14/12 A2987 RMK A01 T01390115  RH  085%=      5-min Rain = 0
KHA2 240948Z 16007KT 14/12 A2987 RMK A01 T01390115  RH  085%=      5-min Rain = 0
KHA2 240949Z 16007KT 14/11 A2987 RMK A01 T01380114  RH  086%=      5-min Rain = 0
KHA2 240950Z 16008KT 14/11 A2987 RMK A01 T01370114  RH  086%=      5-min Rain = 0
KHA2 240951Z 16008KT 14/11 A2987 RMK A01 T01370114  RH  086%=      5-min Rain = 0
KHA2 240952Z 16008KT 14/11 A2987 RMK A01 T01360114  RH  087%=      5-min Rain = 0
KHA2 240953Z 16007KT 14/11 A2987 RMK A01 T01360114  RH  087%=      5-min Rain = 0
KHA2 240954Z 15008KT 14/11 A2987 RMK A01 T01360114  RH  087%=      5-min Rain = 0
KHA2 240955Z 15008KT 14/12 A2987 RMK A01 T01360115  RH  087%=      5-min Rain = 0
KHA2 240956Z 15008KT 14/11 A2987 RMK A01 T01350114  RH  087%=      5-min Rain = 0
KHA2 240957Z 15008KT 14/11 A2987 RMK A01 T01350114  RH  087%=      5-min Rain = 0
KHA2 240958Z 15008KT 14/12 A2987 RMK A01 T01350115  RH  088%=      5-min Rain = 0
KHA2 240959Z 15009KT 13/12 A2987 RMK A01 T01340115  RH  088%=      5-min Rain = 0
KHA2 241000Z 15008KT 13/12 A2987 RMK A01 T01340115  RH  088%=      5-min Rain = 0
KHA2 241001Z 15009KT 13/11 A2987 RMK A01 T01340114  RH  088%=      5-min Rain = 0
KHA2 241002Z 15008KT 13/12 A2987 RMK A01 T01340115  RH  088%=      5-min Rain = 0
KHA2 241003Z 15008KT 13/11 A2987 RMK A01 T01330114  RH  088%=      5-min Rain = 0
KHA2 241004Z 16008KT 13/11 A2987 RMK A01 T01330114  RH  088%=      5-min Rain = 0
KHA2 241005Z 16008KT 13/11 A2987 RMK A01 T01320113  RH  089%=      5-min Rain = 0
KHA2 241006Z 17008KT 13/11 A2987 RMK A01 T01320113  RH  089%=      5-min Rain = 0
KHA2 241007Z 16007KT 13/11 A2987 RMK A01 T01310113  RH  089%=      5-min Rain = 0
KHA2 241008Z 17007KT 13/11 A2987 RMK A01 T01300113  RH  089%=      5-min Rain = 0
KHA2 241009Z 17008KT 13/11 A2987 RMK A01 T01300112  RH  089%=      5-min Rain = 0
KHA2 241010Z 16008KT 13/11 A2987 RMK A01 T01290112  RH  090%=      5-min Rain = 0
KHA2 241011Z 15008KT 13/11 A2987 RMK A01 T01290113  RH  090%=      5-min Rain = 0
KHA2 241012Z 16009KT 13/11 A2987 RMK A01 T01290113  RH  090%=      5-min Rain = 0
KHA2 241013Z 16008KT 13/11 A2987 RMK A01 T01300114  RH  090%=      5-min Rain = 0
KHA2 241014Z 16008KT 13/11 A2987 RMK A01 T01300114  RH  090%=      5-min Rain = 0
KHA2 241015Z 16008KT 13/12 A2987 RMK A01 T01310115  RH  090%=      5-min Rain = 0
KHA2 241016Z 17008KT 13/12 A2987 RMK A01 T01310115  RH  090%=      5-min Rain = 0
KHA2 241017Z 17008KT 13/12 A2987 RMK A01 T01310115  RH  090%=      5-min Rain = 0
KHA2 241018Z 17008KT 13/12 A2987 RMK A01 T01310115  RH  090%=      5-min Rain = 0
KHA2 241019Z 17008KT 13/12 A2987 RMK A01 T01310115  RH  090%=      5-min Rain = 0
KHA2 241020Z 17008KT 13/11 A2987 RMK A01 T01300114  RH  090%=      5-min Rain = 0
KHA2 241021Z 17008KT 13/11 A2987 RMK A01 T01300114  RH  090%=      5-min Rain = 0
KHA2 241022Z 17008KT 13/11 A2987 RMK A01 T01300114  RH  090%=      5-min Rain = 0
KHA2 241023Z 17008KT 13/11 A2987 RMK A01 T01300114  RH  090%=      5-min Rain = 0
KHA2 241024Z 17008KT 13/11 A2987 RMK A01 T01300114  RH  090%=      5-min Rain = 0
KHA2 241025Z 18008KT 13/11 A2987 RMK A01 T01290114  RH  090%=      5-min Rain = 0
KHA2 241026Z 18008KT 13/12 A2987 RMK A01 T01300115  RH  091%=      5-min Rain = 0
KHA2 241027Z 18008KT 13/11 A2987 RMK A01 T01290114  RH  091%=      5-min Rain = 0
KHA2 241028Z 18008KT 13/11 A2987 RMK A01 T01290114  RH  091%=      5-min Rain = 0
KHA2 241029Z 18008KT 13/11 A2987 RMK A01 T01290114  RH  091%=      5-min Rain = 0
KHA2 241030Z 17008KT 13/12 A2987 RMK A01 T01290115  RH  091%=      5-min Rain = 0
KHA2 241031Z 17008KT 13/12 A2987 RMK A01 T01300115  RH  091%=      5-min Rain = 0
KHA2 241032Z 17008KT 13/12 A2987 RMK A01 T01300115  RH  091%=      5-min Rain = 0
KHA2 241033Z 17008KT 13/12 A2987 RMK A01 T01300115  RH  090%=      5-min Rain = 0
KHA2 241034Z 18008KT 13/12 A2987 RMK A01 T01310115  RH  090%=      5-min Rain = 0
KHA2 241035Z 19007KT 13/12 A2987 RMK A01 T01310115  RH  090%=      5-min Rain = 0
KHA2 241036Z 19007KT 13/11 A2987 RMK A01 T01300114  RH  090%=      5-min Rain = 0
KHA2 241037Z 19008KT 13/11 A2987 RMK A01 T01290113  RH  090%=      5-min Rain = 0
KHA2 241038Z 19008KT 13/11 A2987 RMK A01 T01290113  RH  090%=      5-min Rain = 0
KHA2 241039Z 19008KT 13/11 A2987 RMK A01 T01290114  RH  090%=      5-min Rain = 0
KHA2 241040Z 18008KT 13/11 A2987 RMK A01 T01280113  RH  091%=      5-min Rain = 0
KHA2 241041Z 18008KT 13/11 A2987 RMK A01 T01280113  RH  091%=      5-min Rain = 0
KHA2 241042Z 18008KT 13/11 A2987 RMK A01 T01280113  RH  091%=      5-min Rain = 0
KHA2 241043Z 18008KT 13/11 A2987 RMK A01 T01270113  RH  091%=      5-min Rain = 0
KHA2 241044Z 18008KT 13/11 A2987 RMK A01 T01270113  RH  091%=      5-min Rain = 0
KHA2 241045Z 19007KT 13/11 A2987 RMK A01 T01270113  RH  091%=      5-min Rain = 0
KHA2 241046Z 19007KT 13/11 A2987 RMK A01 T01270113  RH  091%=      5-min Rain = 0
KHA2 241047Z 20007KT 13/11 A2987 RMK A01 T01270114  RH  091%=      5-min Rain = 0
KHA2 241048Z 20008KT 13/12 A2987 RMK A01 T01290115  RH  092%=      5-min Rain = 0
KHA2 241049Z 20007KT 13/12 A2987 RMK A01 T01300116  RH  091%=      5-min Rain = 0
KHA2 241050Z 19007KT 13/12 A2987 RMK A01 T01310117  RH  091%=      5-min Rain = 0
KHA2 241051Z 19007KT 13/12 A2987 RMK A01 T01320117  RH  090%=      5-min Rain = 0
KHA2 241052Z 19007KT 13/12 A2987 RMK A01 T01320116  RH  090%=      5-min Rain = 0
KHA2 241053Z 19007KT 13/12 A2987 RMK A01 T01320115  RH  089%=      5-min Rain = 0
KHA2 241054Z 19008KT 13/12 A2987 RMK A01 T01330115  RH  089%=      5-min Rain = 0
KHA2 241055Z 19008KT 13/12 A2987 RMK A01 T01330115  RH  089%=      5-min Rain = 0
KHA2 241056Z 19008KT 13/12 A2987 RMK A01 T01330115  RH  089%=      5-min Rain = 0
KHA2 241057Z 19008KT 13/12 A2987 RMK A01 T01320115  RH  089%=      5-min Rain = 0
KHA2 241058Z 19008KT 13/12 A2987 RMK A01 T01330115  RH  089%=      5-min Rain = 0
KHA2 241059Z 19008KT 13/11 A2987 RMK A01 T01320114  RH  089%=      5-min Rain = 0
KHA2 241100Z 19008KT 13/11 A2987 RMK A01 T01310114  RH  089%=      5-min Rain = 0
KHA2 241101Z 19008KT 13/11 A2987 RMK A01 T01300113  RH  089%=      5-min Rain = 0
KHA2 241102Z 19008KT 13/11 A2987 RMK A01 T01300114  RH  090%=      5-min Rain = 0
KHA2 241103Z 19008KT 13/11 A2987 RMK A01 T01300113  RH  090%=      5-min Rain = 0
KHA2 241104Z 18008KT 13/11 A2987 RMK A01 T01290113  RH  090%=      5-min Rain = 0
KHA2 241105Z 18008KT 13/11 A2987 RMK A01 T01280112  RH  090%=      5-min Rain = 0
KHA2 241106Z 18008KT 13/11 A2987 RMK A01 T01270112  RH  091%=      5-min Rain = 0
KHA2 241107Z 18008KT 13/11 A2987 RMK A01 T01270112  RH  091%=      5-min Rain = 0
KHA2 241108Z 18008KT 13/11 A2987 RMK A01 T01260112  RH  091%=      5-min Rain = 0
KHA2 241109Z 18007KT 13/11 A2987 RMK A01 T01250112  RH  091%=      5-min Rain = 0
KHA2 241110Z 18007KT 13/11 A2987 RMK A01 T01250112  RH  092%=      5-min Rain = 0
KHA2 241111Z 19007KT 12/11 A2987 RMK A01 T01240111  RH  092%=      5-min Rain = 0
KHA2 241112Z 19007KT 12/11 A2987 RMK A01 T01240111  RH  092%=      5-min Rain = 0
KHA2 241113Z 19007KT 12/11 A2987 RMK A01 T01230110  RH  092%=      5-min Rain = 0
KHA2 241114Z 18007KT 12/11 A2987 RMK A01 T01220109  RH  092%=      5-min Rain = 0
KHA2 241115Z 18007KT 12/11 A2987 RMK A01 T01210109  RH  092%=      5-min Rain = 0
KHA2 241116Z 18007KT 12/11 A2987 RMK A01 T01200108  RH  092%=      5-min Rain = 0
KHA2 241117Z 18007KT 12/11 A2987 RMK A01 T01190107  RH  092%=      5-min Rain = 0
KHA2 241118Z 19007KT 12/11 A2987 RMK A01 T01180107  RH  093%=      5-min Rain = 0
KHA2 241119Z 19007KT 12/11 A2987 RMK A01 T01180107  RH  093%=      5-min Rain = 0
KHA2 241120Z 19007KT 12/11 A2987 RMK A01 T01180108  RH  094%=      5-min Rain = 0
KHA2 241121Z 19007KT 12/11 A2987 RMK A01 T01170108  RH  094%=      5-min Rain = 0
KHA2 241122Z 19007KT 12/11 A2987 RMK A01 T01170108  RH  094%=      5-min Rain = 0
KHA2 241123Z 19007KT 12/11 A2987 RMK A01 T01170108  RH  094%=      5-min Rain = 0
KHA2 241124Z 19008KT 12/11 A2987 RMK A01 T01180108  RH  094%=      5-min Rain = 0
KHA2 241125Z 18007KT 12/11 A2987 RMK A01 T01170109  RH  094%=      5-min Rain = 0
KHA2 241126Z 18007KT 12/11 A2987 RMK A01 T01170108  RH  094%=      5-min Rain = 0
KHA2 241127Z 19007KT 12/11 A2987 RMK A01 T01170108  RH  094%=      5-min Rain = 0
KHA2 241128Z 19007KT 12/11 A2987 RMK A01 T01170108  RH  094%=      5-min Rain = 0
KHA2 241129Z 18008KT 12/11 A2987 RMK A01 T01160108  RH  094%=      5-min Rain = 0
KHA2 241130Z 18007KT 12/11 A2987 RMK A01 T01160108  RH  094%=      5-min Rain = 0
KHA2 241131Z 18007KT 12/11 A2987 RMK A01 T01160108  RH  095%=      5-min Rain = 0
KHA2 241132Z 18008KT 12/11 A2987 RMK A01 T01160108  RH  095%=      5-min Rain = 0
KHA2 241133Z 18007KT 12/11 A2987 RMK A01 T01160108  RH  095%=      5-min Rain = 0
KHA2 241134Z 18007KT 12/11 A2987 RMK A01 T01150108  RH  095%=      5-min Rain = 0
KHA2 241135Z 18007KT 12/11 A2987 RMK A01 T01150107  RH  095%=      5-min Rain = 0
KHA2 241136Z 18007KT 12/11 A2987 RMK A01 T01150107  RH  095%=      5-min Rain = 0
KHA2 241137Z 18007KT 11/11 A2987 RMK A01 T01140106  RH  095%=      5-min Rain = 0
KHA2 241138Z 17007KT 11/11 A2987 RMK A01 T01130105  RH  095%=      5-min Rain = 0
KHA2 241139Z 17008KT 11/10 A2987 RMK A01 T01130104  RH  095%=      5-min Rain = 0
KHA2 241140Z 17008KT 11/10 A2986 RMK A01 T01120104  RH  095%=      5-min Rain = 0
KHA2 241141Z 17009KT 11/10 A2987 RMK A01 T01120103  RH  095%=      5-min Rain = 0
KHA2 241142Z 17009KT 11/10 A2986 RMK A01 T01110104  RH  095%=      5-min Rain = 0
KHA2 241143Z 17009KT 11/10 A2986 RMK A01 T01110104  RH  095%=      5-min Rain = 0
KHA2 241144Z 17008KT 11/11 A2986 RMK A01 T01120105  RH  096%=      5-min Rain = 0
KHA2 241145Z 18008KT 11/11 A2987 RMK A01 T01130106  RH  096%=      5-min Rain = 0
KHA2 241146Z 18008KT 11/11 A2987 RMK A01 T01130107  RH  096%=      5-min Rain = 0
KHA2 241147Z 17009KT 11/11 A2986 RMK A01 T01140107  RH  096%=      5-min Rain = 0
KHA2 241148Z 17009KT 12/11 A2986 RMK A01 T01150108  RH  096%=      5-min Rain = 0
KHA2 241149Z 18008KT 12/11 A2986 RMK A01 T01150108  RH  096%=      5-min Rain = 0
KHA2 241150Z 18008KT 12/11 A2987 RMK A01 T01150108  RH  095%=      5-min Rain = 0
KHA2 241151Z 17008KT 12/11 A2986 RMK A01 T01150108  RH  095%=      5-min Rain = 0
KHA2 241152Z 17008KT 12/11 A2986 RMK A01 T01150108  RH  095%=      5-min Rain = 0
KHA2 241153Z 17008KT 12/11 A2986 RMK A01 T01160108  RH  095%=      5-min Rain = 0
KHA2 241154Z 18008KT 12/11 A2986 RMK A01 T01160109  RH  095%=      5-min Rain = 0
KHA2 241155Z 18008KT 12/11 A2986 RMK A01 T01160108  RH  095%=      5-min Rain = 0
KHA2 241156Z 18008KT 12/11 A2986 RMK A01 T01160108  RH  095%=      5-min Rain = 0
KHA2 241157Z 18007KT 12/11 A2986 RMK A01 T01160108  RH  094%=      5-min Rain = 0
KHA2 241158Z 18008KT 12/11 A2986 RMK A01 T01160108  RH  094%=      5-min Rain = 0
KHA2 241159Z 18008KT 12/11 A2986 RMK A01 T01170108  RH  094%=      5-min Rain = 0
KHA2 241200Z 18008KT 12/11 A2986 RMK A01 T01170108  RH  094%=      5-min Rain = 0
KHA2 241201Z 18008KT 12/11 A2986 RMK A01 T01170108  RH  094%=      5-min Rain = 0
KHA2 241202Z 18007KT 12/11 A2986 RMK A01 T01170108  RH  094%=      5-min Rain = 0
KHA2 241203Z 18007KT 12/11 A2986 RMK A01 T01180109  RH  094%=      5-min Rain = 0
KHA2 241204Z 18007KT 12/11 A2986 RMK A01 T01180108  RH  094%=      5-min Rain = 0
KHA2 241205Z 18008KT 12/11 A2986 RMK A01 T01180108  RH  093%=      5-min Rain = 0
KHA2 241206Z 18008KT 12/11 A2986 RMK A01 T01190108  RH  093%=      5-min Rain = 0
KHA2 241207Z 18008KT 12/11 A2986 RMK A01 T01190108  RH  093%=      5-min Rain = 0
KHA2 241208Z 18008KT 12/11 A2986 RMK A01 T01190108  RH  093%=      5-min Rain = 0
KHA2 241209Z 18008KT 12/11 A2986 RMK A01 T01190108  RH  093%=      5-min Rain = 0
KHA2 241210Z 18007KT 12/11 A2986 RMK A01 T01190108  RH  093%=      5-min Rain = 0
KHA2 241211Z 18008KT 12/11 A2986 RMK A01 T01200108  RH  093%=      5-min Rain = 0
KHA2 241212Z 18008KT 12/11 A2986 RMK A01 T01200108  RH  093%=      5-min Rain = 0
KHA2 241213Z 18008KT 12/11 A2986 RMK A01 T01200109  RH  093%=      5-min Rain = 0
KHA2 241214Z 18008KT 12/11 A2986 RMK A01 T01200109  RH  093%=      5-min Rain = 0
KHA2 241215Z 18008KT 12/11 A2986 RMK A01 T01210110  RH  093%=      5-min Rain = 0
KHA2 241216Z 18008KT 12/11 A2987 RMK A01 T01210110  RH  093%=      5-min Rain = 0
KHA2 241217Z 18008KT 12/11 A2987 RMK A01 T01220110  RH  092%=      5-min Rain = 0
KHA2 241218Z 18008KT 12/11 A2987 RMK A01 T01230111  RH  092%=      5-min Rain = 0
KHA2 241219Z 18008KT 12/11 A2987 RMK A01 T01230111  RH  092%=      5-min Rain = 0
KHA2 241220Z 18008KT 12/11 A2987 RMK A01 T01240111  RH  092%=      5-min Rain = 0
KHA2 241221Z 18008KT 12/11 A2987 RMK A01 T01240111  RH  092%=      5-min Rain = 0
KHA2 241222Z 18008KT 13/11 A2987 RMK A01 T01250112  RH  091%=      5-min Rain = 0
KHA2 241223Z 18008KT 13/11 A2987 RMK A01 T01260112  RH  091%=      5-min Rain = 0
KHA2 241224Z 18008KT 13/11 A2987 RMK A01 T01260112  RH  091%=      5-min Rain = 0
KHA2 241225Z 18008KT 13/11 A2987 RMK A01 T01280113  RH  091%=      5-min Rain = 0
KHA2 241226Z 18009KT 13/11 A2987 RMK A01 T01290114  RH  090%=      5-min Rain = 0
KHA2 241227Z 18009KT 13/12 A2987 RMK A01 T01310115  RH  090%=      5-min Rain = 0
KHA2 241228Z 18009KT 13/12 A2987 RMK A01 T01320116  RH  090%=      5-min Rain = 0
KHA2 241229Z 18009KT 13/12 A2987 RMK A01 T01330116  RH  089%=      5-min Rain = 0
KHA2 241230Z 19009KT 13/12 A2987 RMK A01 T01340116  RH  089%=      5-min Rain = 0
KHA2 241231Z 19010KT 14/12 A2987 RMK A01 T01360116  RH  088%=      5-min Rain = 0
KHA2 241232Z 19009KT 14/12 A2987 RMK A01 T01370117  RH  088%=      5-min Rain = 0
KHA2 241233Z 18010KT 14/12 A2987 RMK A01 T01380117  RH  087%=      5-min Rain = 0
KHA2 241234Z 19011KT 14/12 A2987 RMK A01 T01390117  RH  087%=      5-min Rain = 0
KHA2 241235Z 19011KT 14/12 A2987 RMK A01 T01400117  RH  086%=      5-min Rain = 0
KHA2 241236Z 19011KT 14/12 A2987 RMK A01 T01410117  RH  085%=      5-min Rain = 0
KHA2 241237Z 19011KT 14/12 A2986 RMK A01 T01420117  RH  085%=      5-min Rain = 0
KHA2 241238Z 19011KT 14/12 A2986 RMK A01 T01430117  RH  084%=      5-min Rain = 0
KHA2 241239Z 19011KT 14/12 A2986 RMK A01 T01440118  RH  084%=      5-min Rain = 0
KHA2 241240Z 19010KT 15/12 A2986 RMK A01 T01450118  RH  084%=      5-min Rain = 0
KHA2 241241Z 19012KT 15/12 A2986 RMK A01 T01460118  RH  083%=      5-min Rain = 0
KHA2 241242Z 19011KT 15/12 A2986 RMK A01 T01470118  RH  083%=      5-min Rain = 0
KHA2 241243Z 19012KT 15/12 A2986 RMK A01 T01480119  RH  082%=      5-min Rain = 0
KHA2 241244Z 19011KT 15/12 A2986 RMK A01 T01490119  RH  082%=      5-min Rain = 0
KHA2 241245Z 19013KT 15/12 A2986 RMK A01 T01500119  RH  081%=      5-min Rain = 0
KHA2 241246Z 19015KT 15/12 A2986 RMK A01 T01520119  RH  081%=      5-min Rain = 0
KHA2 241247Z 19012KT 15/12 A2986 RMK A01 T01530119  RH  080%=      5-min Rain = 0
KHA2 241248Z 19014KT 16/12 A2986 RMK A01 T01550119  RH  079%=      5-min Rain = 0
KHA2 241249Z 19014KT 16/12 A2986 RMK A01 T01560120  RH  079%=      5-min Rain = 0
KHA2 241250Z 20015KT 16/12 A2986 RMK A01 T01570120  RH  078%=      5-min Rain = 0
KHA2 241251Z 20013KT 16/12 A2986 RMK A01 T01590120  RH  078%=      5-min Rain = 0
KHA2 241252Z 20014KT 16/12 A2986 RMK A01 T01610121  RH  077%=      5-min Rain = 0
KHA2 241253Z 19016KT 16/12 A2986 RMK A01 T01620121  RH  076%=      5-min Rain = 0
KHA2 241254Z 19015KT 16/12 A2986 RMK A01 T01640121  RH  075%=      5-min Rain = 0
KHA2 241255Z 20014KT 17/12 A2986 RMK A01 T01660122  RH  075%=      5-min Rain = 0
KHA2 241256Z 20014KT 17/12 A2986 RMK A01 T01670122  RH  074%=      5-min Rain = 0
KHA2 241257Z 20015KT 17/12 A2986 RMK A01 T01680122  RH  074%=      5-min Rain = 0
KHA2 241258Z 19015KT 17/12 A2986 RMK A01 T01690122  RH  073%=      5-min Rain = 0
KHA2 241259Z 19017KT 17/12 A2986 RMK A01 T01700121  RH  073%=      5-min Rain = 0
KHA2 241300Z 19015KT 17/12 A2986 RMK A01 T01710121  RH  072%=      5-min Rain = 0
KHA2 241301Z 19013G19KT 17/12 A2986 RMK A01 T01720122  RH  072%=      5-min Rain = 0
KHA2 241302Z 19016KT 17/12 A2986 RMK A01 T01720121  RH  072%=      5-min Rain = 0
KHA2 241303Z 19016KT 17/12 A2986 RMK A01 T01730121  RH  071%=      5-min Rain = 0
KHA2 241304Z 19018KT 17/12 A2986 RMK A01 T01740121  RH  071%=      5-min Rain = 0
KHA2 241305Z 19017KT 17/12 A2986 RMK A01 T01740121  RH  071%=      5-min Rain = 0
KHA2 241306Z 19018KT 18/12 A2986 RMK A01 T01750121  RH  070%=      5-min Rain = 0
KHA2 241307Z 19017KT 18/12 A2986 RMK A01 T01750120  RH  070%=      5-min Rain = 0
KHA2 241308Z 20018KT 18/12 A2986 RMK A01 T01750120  RH  070%=      5-min Rain = 0
KHA2 241309Z 20016KT 18/12 A2986 RMK A01 T01760120  RH  070%=      5-min Rain = 0
KHA2 241310Z 20016KT 18/12 A2986 RMK A01 T01770121  RH  070%=      5-min Rain = 0
KHA2 241311Z 20016KT 18/12 A2986 RMK A01 T01770121  RH  069%=      5-min Rain = 0
KHA2 241312Z 20015KT 18/12 A2986 RMK A01 T01790122  RH  069%=      5-min Rain = 0
KHA2 241313Z 20019KT 18/12 A2986 RMK A01 T01800120  RH  068%=      5-min Rain = 0
KHA2 241314Z 20016KT 18/12 A2986 RMK A01 T01810120  RH  068%=      5-min Rain = 0
KHA2 241315Z 20018KT 18/12 A2986 RMK A01 T01820120  RH  067%=      5-min Rain = 0
KHA2 241316Z 21018KT 18/12 A2986 RMK A01 T01830120  RH  067%=      5-min Rain = 0
KHA2 241317Z 20015KT 18/12 A2986 RMK A01 T01830120  RH  067%=      5-min Rain = 0
KHA2 241318Z 20015KT 18/12 A2986 RMK A01 T01840121  RH  066%=      5-min Rain = 0
KHA2 241319Z 21015KT 19/12 A2986 RMK A01 T01850121  RH  066%=      5-min Rain = 0
KHA2 241320Z 20016KT 19/12 A2986 RMK A01 T01860120  RH  066%=      5-min Rain = 0
KHA2 241321Z 21014KT 19/12 A2986 RMK A01 T01860121  RH  066%=      5-min Rain = 0
KHA2 241322Z 21016KT 19/12 A2986 RMK A01 T01870121  RH  065%=      5-min Rain = 0
KHA2 241323Z 21017KT 19/12 A2986 RMK A01 T01870120  RH  065%=      5-min Rain = 0
KHA2 241324Z 20015KT 19/12 A2986 RMK A01 T01870120  RH  065%=      5-min Rain = 0
KHA2 241325Z 20018KT 19/12 A2985 RMK A01 T01880120  RH  065%=      5-min Rain = 0
KHA2 241326Z 21018KT 19/12 A2985 RMK A01 T01880119  RH  064%=      5-min Rain = 0
KHA2 241327Z 21018KT 19/12 A2985 RMK A01 T01890119  RH  064%=      5-min Rain = 0
KHA2 241328Z 21017KT 19/12 A2985 RMK A01 T01900120  RH  064%=      5-min Rain = 0
KHA2 241329Z 21020G25KT 19/12 A2985 RMK A01 T01910119  RH  063%=      5-min Rain = 0
KHA2 241330Z 20020KT 19/12 A2985 RMK A01 T01910118  RH  063%=      5-min Rain = 0
KHA2 241331Z 21019KT 19/12 A2985 RMK A01 T01910118  RH  063%=      5-min Rain = 0
KHA2 241332Z 20017KT 19/12 A2985 RMK A01 T01920119  RH  063%=      5-min Rain = 0
KHA2 241333Z 20015KT 19/12 A2985 RMK A01 T01940120  RH  062%=      5-min Rain = 0
KHA2 241334Z 21018G24KT 20/12 A2985 RMK A01 T01960120  RH  062%=      5-min Rain = 0
KHA2 241335Z 21021G26KT 20/12 A2985 RMK A01 T01960118  RH  061%=      5-min Rain = 0
KHA2 241336Z 21020KT 20/12 A2985 RMK A01 T01950118  RH  061%=      5-min Rain = 0
KHA2 241337Z 21019KT 20/12 A2985 RMK A01 T01950119  RH  061%=      5-min Rain = 0
KHA2 241338Z 21018KT 20/12 A2985 RMK A01 T01950118  RH  061%=      5-min Rain = 0
KHA2 241339Z 21015KT 20/12 A2985 RMK A01 T01970120  RH  061%=      5-min Rain = 0
KHA2 241340Z 21022KT 20/12 A2985 RMK A01 T01990120  RH  060%=      5-min Rain = 0
KHA2 241341Z 20024G29KT 20/12 A2985 RMK A01 T01990117  RH  059%=      5-min Rain = 0
KHA2 241342Z 21021KT 20/12 A2985 RMK A01 T01970117  RH  060%=      5-min Rain = 0
KHA2 241343Z 21023KT 20/12 A2985 RMK A01 T01970117  RH  060%=      5-min Rain = 0
KHA2 241344Z 21023KT 20/12 A2985 RMK A01 T01970117  RH  060%=      5-min Rain = 0
KHA2 241345Z 21020KT 20/12 A2985 RMK A01 T01970117  RH  060%=      5-min Rain = 0
KHA2 241346Z 20020KT 20/12 A2985 RMK A01 T01980118  RH  060%=      5-min Rain = 0
KHA2 241347Z 21022G27KT 20/12 A2985 RMK A01 T01990118  RH  060%=      5-min Rain = 0
KHA2 241348Z 21022KT 20/12 A2985 RMK A01 T01990118  RH  059%=      5-min Rain = 0
KHA2 241349Z 21022KT 20/12 A2985 RMK A01 T02000118  RH  059%=      5-min Rain = 0
KHA2 241350Z 20020KT 20/12 A2985 RMK A01 T02000119  RH  059%=      5-min Rain = 0
KHA2 241351Z 21022G27KT 20/12 A2985 RMK A01 T02010119  RH  059%=      5-min Rain = 0
KHA2 241352Z 21021KT 20/12 A2985 RMK A01 T02010119  RH  059%=      5-min Rain = 0
KHA2 241353Z 21023KT 20/12 A2985 RMK A01 T02020119  RH  059%=      5-min Rain = 0
KHA2 241354Z 21020KT 20/12 A2985 RMK A01 T02020119  RH  059%=      5-min Rain = 0
KHA2 241355Z 21022KT 20/12 A2985 RMK A01 T02020119  RH  059%=      5-min Rain = 0
KHA2 241356Z 21020KT 20/12 A2985 RMK A01 T02020120  RH  059%=      5-min Rain = 0
KHA2 241357Z 20018G24KT 20/12 A2985 RMK A01 T02040122  RH  059%=      5-min Rain = 0
KHA2 241358Z 20020KT 21/12 A2985 RMK A01 T02060121  RH  058%=      5-min Rain = 0
KHA2 241359Z 22019G25KT 21/12 A2985 RMK A01 T02070121  RH  058%=      5-min Rain = 0
KHA2 241400Z 21021KT 21/12 A2985 RMK A01 T02070121  RH  058%=      5-min Rain = 0
KHA2 241401Z 21020G25KT 21/12 A2985 RMK A01 T02070121  RH  058%=      5-min Rain = 0
KHA2 241402Z 22021KT 21/12 A2985 RMK A01 T02080121  RH  058%=      5-min Rain = 0
KHA2 241403Z 21022KT 21/12 A2985 RMK A01 T02080121  RH  058%=      5-min Rain = 0
KHA2 241404Z 21019KT 21/12 A2985 RMK A01 T02070121  RH  058%=      5-min Rain = 0
KHA2 241405Z 21022G28KT 21/12 A2985 RMK A01 T02090123  RH  058%=      5-min Rain = 0
KHA2 241406Z 21024KT 21/12 A2985 RMK A01 T02110123  RH  057%=      5-min Rain = 0
KHA2 241407Z 21023KT 21/12 A2985 RMK A01 T02110123  RH  057%=      5-min Rain = 0
KHA2 241408Z 21021KT 21/12 A2985 RMK A01 T02110123  RH  057%=      5-min Rain = 0
KHA2 241409Z 21019KT 21/12 A2985 RMK A01 T02110123  RH  057%=      5-min Rain = 0
KHA2 241410Z 21016G21KT 21/13 A2985 RMK A01 T02130126  RH  057%=      5-min Rain = 0
KHA2 241411Z 21016G21KT 22/13 A2985 RMK A01 T02170127  RH  057%=      5-min Rain = 0
KHA2 241412Z 20018KT 22/13 A2985 RMK A01 T02190126  RH  056%=      5-min Rain = 0
KHA2 241413Z 20021KT 22/13 A2985 RMK A01 T02200126  RH  055%=      5-min Rain = 0
KHA2 241414Z 21021KT 22/13 A2985 RMK A01 T02200126  RH  055%=      5-min Rain = 0
KHA2 241415Z 21019KT 22/13 A2985 RMK A01 T02200127  RH  055%=      5-min Rain = 0
KHA2 241416Z 21021KT 22/13 A2985 RMK A01 T02220128  RH  055%=      5-min Rain = 0
KHA2 241417Z 22024KT 22/13 A2985 RMK A01 T02230129  RH  055%=      5-min Rain = 0
KHA2 241418Z 21021KT 22/13 A2985 RMK A01 T02210128  RH  056%=      5-min Rain = 0
KHA2 241419Z 22021KT 22/13 A2985 RMK A01 T02210128  RH  056%=      5-min Rain = 0
KHA2 241420Z 22025KT 22/13 A2984 RMK A01 T02220128  RH  055%=      5-min Rain = 0
KHA2 241421Z 22024KT 22/13 A2984 RMK A01 T02210128  RH  055%=      5-min Rain = 0
KHA2 241422Z 21024KT 22/13 A2984 RMK A01 T02200127  RH  056%=      5-min Rain = 0
KHA2 241423Z 21026G31KT 22/13 A2984 RMK A01 T02200127  RH  056%=      5-min Rain = 0
KHA2 241424Z 21025KT 22/13 A2984 RMK A01 T02200128  RH  056%=      5-min Rain = 0
KHA2 241425Z 21024KT 22/13 A2985 RMK A01 T02210128  RH  055%=      5-min Rain = 0
KHA2 241426Z 21021G27KT 22/13 A2984 RMK A01 T02210128  RH  055%=      5-min Rain = 0
KHA2 241427Z 21025KT 22/13 A2984 RMK A01 T02220128  RH  055%=      5-min Rain = 0
KHA2 241428Z 22022KT 22/13 A2984 RMK A01 T02220127  RH  055%=      5-min Rain = 0
KHA2 241429Z 21023G28KT 22/13 A2984 RMK A01 T02220128  RH  055%=      5-min Rain = 0
KHA2 241430Z 21022KT 22/13 A2985 RMK A01 T02220128  RH  055%=      5-min Rain = 0
KHA2 241431Z 21023KT 22/13 A2985 RMK A01 T02220128  RH  055%=      5-min Rain = 0
KHA2 241432Z 21021KT 22/13 A2985 RMK A01 T02210128  RH  056%=      5-min Rain = 0
KHA2 241433Z 22023KT 22/13 A2984 RMK A01 T02210128  RH  055%=      5-min Rain = 0
KHA2 241434Z 21022KT 22/13 A2985 RMK A01 T02200127  RH  056%=      5-min Rain = 0
KHA2 241435Z 21022KT 22/13 A2985 RMK A01 T02190128  RH  056%=      5-min Rain = 0
KHA2 241436Z 21018KT 22/13 A2985 RMK A01 T02200129  RH  056%=      5-min Rain = 0
KHA2 241437Z 22022KT 23/13 A2985 RMK A01 T02250130  RH  055%=      5-min Rain = 0
KHA2 241438Z 21021G26KT 23/13 A2985 RMK A01 T02250129  RH  055%=      5-min Rain = 0
KHA2 241439Z 22021G27KT 23/13 A2985 RMK A01 T02270130  RH  054%=      5-min Rain = 0
KHA2 241440Z 21022KT 23/13 A2985 RMK A01 T02280129  RH  053%=      5-min Rain = 0
KHA2 241441Z 22024KT 23/13 A2985 RMK A01 T02270129  RH  054%=      5-min Rain = 0
KHA2 241442Z 22024KT 23/13 A2985 RMK A01 T02260128  RH  054%=      5-min Rain = 0
KHA2 241443Z 22020KT 23/13 A2985 RMK A01 T02250128  RH  054%=      5-min Rain = 0
KHA2 241444Z 21019KT 23/13 A2985 RMK A01 T02260129  RH  054%=      5-min Rain = 0
KHA2 241445Z 21018KT 23/13 A2985 RMK A01 T02280131  RH  054%=      5-min Rain = 0
KHA2 241446Z 21018KT 23/13 A2985 RMK A01 T02310131  RH  053%=      5-min Rain = 0
KHA2 241447Z 22017KT 23/13 A2985 RMK A01 T02310131  RH  053%=      5-min Rain = 0
KHA2 241448Z 21021G26KT 23/13 A2985 RMK A01 T02330131  RH  053%=      5-min Rain = 0
KHA2 241449Z 21024KT 23/13 A2985 RMK A01 T02310128  RH  052%=      5-min Rain = 0
KHA2 241450Z 21020KT 23/13 A2985 RMK A01 T02290128  RH  053%=      5-min Rain = 0
KHA2 241451Z 21020KT 23/13 A2985 RMK A01 T02290129  RH  053%=      5-min Rain = 0
KHA2 241452Z 21022KT 23/13 A2985 RMK A01 T02280128  RH  053%=      5-min Rain = 0
KHA2 241453Z 21022KT 23/13 A2985 RMK A01 T02280129  RH  054%=      5-min Rain = 0
KHA2 241454Z 21023KT 23/13 A2985 RMK A01 T02280128  RH  053%=      5-min Rain = 0
KHA2 241455Z 21024KT 23/13 A2985 RMK A01 T02280128  RH  053%=      5-min Rain = 0
KHA2 241456Z 21020KT 23/13 A2985 RMK A01 T02280128  RH  053%=      5-min Rain = 0
KHA2 241457Z 22021KT 23/13 A2985 RMK A01 T02310130  RH  053%=      5-min Rain = 0
KHA2 241458Z 22021G26KT 23/13 A2985 RMK A01 T02320129  RH  052%=      5-min Rain = 0
KHA2 241459Z 22024KT 23/13 A2985 RMK A01 T02320128  RH  052%=      5-min Rain = 0
KHA2 241500Z 22022KT 23/13 A2985 RMK A01 T02310129  RH  053%=      5-min Rain = 0
KHA2 241501Z 21021KT 23/13 A2985 RMK A01 T02310128  RH  052%=      5-min Rain = 0
KHA2 241502Z 21022KT 23/13 A2985 RMK A01 T02320129  RH  052%=      5-min Rain = 0
KHA2 241503Z 22018G23KT 23/13 A2985 RMK A01 T02320129  RH  052%=      5-min Rain = 0
KHA2 241504Z 22019KT 23/13 A2985 RMK A01 T02340130  RH  052%=      5-min Rain = 0
KHA2 241505Z 23020KT 24/13 A2985 RMK A01 T02350130  RH  052%=      5-min Rain = 0
KHA2 241506Z 22023KT 24/13 A2985 RMK A01 T02350130  RH  052%=      5-min Rain = 0
KHA2 241507Z 22019KT 23/13 A2985 RMK A01 T02340129  RH  052%=      5-min Rain = 0
KHA2 241508Z 21020KT 24/13 A2985 RMK A01 T02350130  RH  052%=      5-min Rain = 0
KHA2 241509Z 21023KT 24/13 A2985 RMK A01 T02360130  RH  051%=      5-min Rain = 0
KHA2 241510Z 22021KT 24/13 A2985 RMK A01 T02360130  RH  051%=      5-min Rain = 0
KHA2 241511Z 22022KT 24/13 A2985 RMK A01 T02350128  RH  051%=      5-min Rain = 0
KHA2 241512Z 22021KT 23/13 A2985 RMK A01 T02340129  RH  052%=      5-min Rain = 0
KHA2 241513Z 22020KT 24/13 A2985 RMK A01 T02350130  RH  052%=      5-min Rain = 0
KHA2 241514Z 22020G25KT 24/13 A2985 RMK A01 T02380130  RH  051%=      5-min Rain = 0
KHA2 241515Z 22023KT 24/13 A2985 RMK A01 T02380129  RH  050%=      5-min Rain = 0
KHA2 241516Z 22022KT 24/13 A2985 RMK A01 T02360129  RH  051%=      5-min Rain = 0
KHA2 241517Z 23021KT 24/13 A2985 RMK A01 T02350130  RH  051%=      5-min Rain = 0
KHA2 241518Z 22021KT 24/13 A2985 RMK A01 T02370131  RH  051%=      5-min Rain = 0
KHA2 241519Z 22020KT 24/13 A2985 RMK A01 T02390130  RH  051%=      5-min Rain = 0
KHA2 241520Z 22021G26KT 24/13 A2985 RMK A01 T02390130  RH  050%=      5-min Rain = 0
KHA2 241521Z 22019KT 24/13 A2985 RMK A01 T02370129  RH  051%=      5-min Rain = 0
KHA2 241522Z 21019KT 24/13 A2985 RMK A01 T02370130  RH  051%=      5-min Rain = 0
KHA2 241523Z 21019KT 24/13 A2985 RMK A01 T02400132  RH  051%=      5-min Rain = 0
KHA2 241524Z 22019KT 24/13 A2985 RMK A01 T02410131  RH  050%=      5-min Rain = 0
KHA2 241525Z 21017KT 24/13 A2985 RMK A01 T02410133  RH  051%=      5-min Rain = 0
KHA2 241526Z 22021KT 25/13 A2985 RMK A01 T02460133  RH  049%=      5-min Rain = 0
KHA2 241527Z 22019KT 25/13 A2985 RMK A01 T02470132  RH  049%=      5-min Rain = 0
KHA2 241528Z 22022KT 25/13 A2985 RMK A01 T02450130  RH  048%=      5-min Rain = 0
KHA2 241529Z 23021KT 24/13 A2985 RMK A01 T02430127  RH  048%=      5-min Rain = 0
KHA2 241530Z 23019KT 24/13 A2985 RMK A01 T02420129  RH  049%=      5-min Rain = 0
KHA2 241531Z 23020KT 24/13 A2985 RMK A01 T02440129  RH  049%=      5-min Rain = 0
KHA2 241532Z 23019G24KT 24/13 A2985 RMK A01 T02440128  RH  048%=      5-min Rain = 0
KHA2 241533Z 22018KT 24/13 A2985 RMK A01 T02420129  RH  049%=      5-min Rain = 0
KHA2 241534Z 21019KT 24/13 A2985 RMK A01 T02430131  RH  050%=      5-min Rain = 0
KHA2 241535Z 23019KT 25/13 A2985 RMK A01 T02460131  RH  049%=      5-min Rain = 0
KHA2 241536Z 23019KT 25/13 A2985 RMK A01 T02460129  RH  048%=      5-min Rain = 0
KHA2 241537Z 23015KT 25/13 A2985 RMK A01 T02450130  RH  049%=      5-min Rain = 0
KHA2 241538Z 23021KT 25/13 A2985 RMK A01 T02470131  RH  048%=      5-min Rain = 0
KHA2 241539Z 22021KT 25/13 A2985 RMK A01 T02460128  RH  048%=      5-min Rain = 0
KHA2 241540Z 22017KT 24/13 A2985 RMK A01 T02440128  RH  048%=      5-min Rain = 0
KHA2 241541Z 23017KT 25/13 A2985 RMK A01 T02460131  RH  049%=      5-min Rain = 0
KHA2 241542Z 22018KT 25/13 A2986 RMK A01 T02470129  RH  048%=      5-min Rain = 0
KHA2 241543Z 23016KT 25/13 A2986 RMK A01 T02470126  RH  047%=      5-min Rain = 0
KHA2 241544Z 24013KT 25/13 A2986 RMK A01 T02460128  RH  048%=      5-min Rain = 0
KHA2 241545Z 25015KT 25/13 A2986 RMK A01 T02490132  RH  048%=      5-min Rain = 0
KHA2 241546Z 24017KT 25/13 A2986 RMK A01 T02510130  RH  047%=      5-min Rain = 0
KHA2 241547Z 25020KT 25/13 A2986 RMK A01 T02520129  RH  046%=      5-min Rain = 0
KHA2 241548Z 25017KT 25/13 A2986 RMK A01 T02470125  RH  047%=      5-min Rain = 0
KHA2 241549Z 23015KT 24/13 A2985 RMK A01 T02430128  RH  048%=      5-min Rain = 0
KHA2 241550Z 23020KT 24/13 A2985 RMK A01 T02420128  RH  049%=      5-min Rain = 0
KHA2 241551Z 22017KT 24/13 A2985 RMK A01 T02420127  RH  048%=      5-min Rain = 0
KHA2 241552Z 23019KT 24/13 A2985 RMK A01 T02440128  RH  048%=      5-min Rain = 0
KHA2 241553Z 23014KT 25/13 A2985 RMK A01 T02450127  RH  048%=      5-min Rain = 0
KHA2 241554Z 21016KT 25/13 A2985 RMK A01 T02470130  RH  048%=      5-min Rain = 0
KHA2 241555Z 22017KT 25/13 A2985 RMK A01 T02510131  RH  047%=      5-min Rain = 0
KHA2 241556Z 24016G21KT 25/13 A2985 RMK A01 T02520130  RH  047%=      5-min Rain = 0
KHA2 241557Z 24016KT 25/13 A2985 RMK A01 T02520127  RH  046%=      5-min Rain = 0
KHA2 241558Z 23015KT 25/13 A2986 RMK A01 T02500129  RH  047%=      5-min Rain = 0
KHA2 241559Z 23015KT 25/13 A2986 RMK A01 T02480128  RH  047%=      5-min Rain = 0
KHA2 241600Z 24018KT 25/13 A2986 RMK A01 T02510128  RH  046%=      5-min Rain = 0
KHA2 241601Z 24016KT 25/13 A2986 RMK A01 T02500126  RH  046%=      5-min Rain = 0
KHA2 241602Z 25013KT 25/13 A2985 RMK A01 T02480128  RH  047%=      5-min Rain = 0
KHA2 241603Z 24016G22KT 25/13 A2985 RMK A01 T02500129  RH  047%=      5-min Rain = 0
KHA2 241604Z 23017KT 25/13 A2985 RMK A01 T02510127  RH  046%=      5-min Rain = 0
KHA2 241605Z 22017G23KT 25/13 A2985 RMK A01 T02500128  RH  047%=      5-min Rain = 0
KHA2 241606Z 22019KT 25/13 A2985 RMK A01 T02530128  RH  046%=      5-min Rain = 0
KHA2 241607Z 23017KT 25/13 A2985 RMK A01 T02540127  RH  045%=      5-min Rain = 0
KHA2 241608Z 24015KT 25/13 A2985 RMK A01 T02520125  RH  045%=      5-min Rain = 0
KHA2 241609Z 23014G21KT 25/13 A2985 RMK A01 T02500127  RH  046%=      5-min Rain = 0
KHA2 241610Z 22018KT 26/13 A2985 RMK A01 T02550126  RH  045%=      5-min Rain = 0
KHA2 241611Z 23015KT 26/13 A2985 RMK A01 T02550125  RH  044%=      5-min Rain = 0
KHA2 241612Z 22019KT 25/13 A2985 RMK A01 T02540126  RH  045%=      5-min Rain = 0
KHA2 241613Z 22016KT 25/13 A2985 RMK A01 T02520127  RH  046%=      5-min Rain = 0
KHA2 241614Z 23018KT 26/13 A2985 RMK A01 T02550128  RH  045%=      5-min Rain = 0
KHA2 241615Z 22017KT 26/13 A2985 RMK A01 T02560126  RH  044%=      5-min Rain = 0
KHA2 241616Z 22017KT 25/13 A2985 RMK A01 T02530126  RH  045%=      5-min Rain = 0
KHA2 241617Z 24017KT 26/13 A2985 RMK A01 T02570128  RH  045%=      5-min Rain = 0
KHA2 241618Z 23016KT 26/13 A2985 RMK A01 T02580126  RH  044%=      5-min Rain = 0
KHA2 241619Z 23015KT 26/13 A2985 RMK A01 T02570126  RH  044%=      5-min Rain = 0
KHA2 241620Z 24017KT 26/13 A2985 RMK A01 T02570125  RH  044%=      5-min Rain = 0
KHA2 241621Z 24016KT 26/13 A2985 RMK A01 T02560125  RH  044%=      5-min Rain = 0
KHA2 241622Z 25017KT 26/13 A2985 RMK A01 T02570126  RH  044%=      5-min Rain = 0
KHA2 241623Z 25015KT 26/12 A2985 RMK A01 T02590124  RH  043%=      5-min Rain = 0
KHA2 241624Z 26014G19KT 26/13 A2985 RMK A01 T02590126  RH  044%=      5-min Rain = 0
KHA2 241625Z 24018KT 26/13 A2985 RMK A01 T02590126  RH  044%=      5-min Rain = 0
KHA2 241626Z 24015KT 26/12 A2985 RMK A01 T02570124  RH  043%=      5-min Rain = 0
KHA2 241627Z 25014KT 26/13 A2985 RMK A01 T02570125  RH  044%=      5-min Rain = 0
KHA2 241628Z 25012G18KT 26/12 A2985 RMK A01 T02550123  RH  044%=      5-min Rain = 0
KHA2 241629Z 24018KT 26/13 A2985 RMK A01 T02550125  RH  044%=      5-min Rain = 0
KHA2 241630Z 24017KT 26/12 A2985 RMK A01 T02600124  RH  043%=      5-min Rain = 0
KHA2 241631Z 25014KT 26/12 A2985 RMK A01 T02600123  RH  043%=      5-min Rain = 0
KHA2 241632Z 22017KT 26/13 A2985 RMK A01 T02590126  RH  044%=      5-min Rain = 0
KHA2 241633Z 22016G21KT 26/13 A2985 RMK A01 T02590127  RH  044%=      5-min Rain = 0
KHA2 241634Z 23020KT 26/13 A2985 RMK A01 T02620125  RH  043%=      5-min Rain = 0
KHA2 241635Z 23017KT 26/12 A2985 RMK A01 T02620121  RH  042%=      5-min Rain = 0
KHA2 241636Z 23014KT 26/12 A2985 RMK A01 T02590118  RH  041%=      5-min Rain = 0
KHA2 241637Z 23012KT 26/12 A2985 RMK A01 T02580122  RH  043%=      5-min Rain = 0
KHA2 241638Z 22018KT 26/13 A2985 RMK A01 T02620127  RH  043%=      5-min Rain = 0
KHA2 241639Z 23017KT 26/13 A2985 RMK A01 T02640127  RH  043%=      5-min Rain = 0
KHA2 241640Z 22014KT 26/12 A2985 RMK A01 T02610124  RH  042%=      5-min Rain = 0
KHA2 241641Z 22014KT 26/12 A2985 RMK A01 T02600123  RH  043%=      5-min Rain = 0
KHA2 241642Z 23015KT 26/12 A2985 RMK A01 T02590122  RH  043%=      5-min Rain = 0
KHA2 241643Z 24016KT 26/13 A2985 RMK A01 T02620126  RH  043%=      5-min Rain = 0
KHA2 241644Z 23017KT 27/13 A2985 RMK A01 T02690126  RH  041%=      5-min Rain = 0
KHA2 241645Z 23014KT 27/13 A2985 RMK A01 T02700127  RH  041%=      5-min Rain = 0
KHA2 241646Z 24013KT 27/12 A2985 RMK A01 T02710123  RH  040%=      5-min Rain = 0
KHA2 241647Z 23016KT 27/12 A2985 RMK A01 T02740117  RH  038%=      5-min Rain = 0
KHA2 241648Z 24017KT 27/12 A2985 RMK A01 T02720115  RH  038%=      5-min Rain = 0
KHA2 241649Z 25015KT 27/11 A2985 RMK A01 T02680112  RH  038%=      5-min Rain = 0
KHA2 241650Z 25014KT 27/11 A2985 RMK A01 T02680113  RH  038%=      5-min Rain = 0
KHA2 241651Z 23013KT 27/12 A2985 RMK A01 T02680115  RH  038%=      5-min Rain = 0
KHA2 241652Z 23012KT 27/12 A2985 RMK A01 T02690118  RH  039%=      5-min Rain = 0
KHA2 241653Z 22013KT 27/12 A2985 RMK A01 T02690120  RH  039%=      5-min Rain = 0
KHA2 241654Z 22011G16KT 27/12 A2985 RMK A01 T02690121  RH  040%=      5-min Rain = 0
KHA2 241655Z 23015KT 27/12 A2985 RMK A01 T02700120  RH  039%=      5-min Rain = 0
KHA2 241656Z 22013KT 27/12 A2985 RMK A01 T02700115  RH  038%=      5-min Rain = 0
KHA2 241657Z 22013KT 28/12 A2985 RMK A01 T02760118  RH  037%=      5-min Rain = 0
KHA2 241658Z 22012KT 28/11 A2985 RMK A01 T02770113  RH  036%=      5-min Rain = 0
KHA2 241659Z 23016KT 28/11 A2985 RMK A01 T02750114  RH  037%=      5-min Rain = 0
KHA2 241700Z 25014KT 28/11 A2985 RMK A01 T02760105  RH  034%=      5-min Rain = 0
KHA2 241701Z 25013KT 28/10 A2985 RMK A01 T02770102  RH  034%=      5-min Rain = 0
KHA2 241702Z 25010KT 27/10 A2985 RMK A01 T02730100  RH  034%=      5-min Rain = 0
KHA2 241703Z 26010KT 27/10 A2985 RMK A01 T02700101  RH  035%=      5-min Rain = 0
KHA2 241704Z 26012KT 27/11 A2985 RMK A01 T02710107  RH  036%=      5-min Rain = 0
KHA2 241705Z 25016KT 28/11 A2985 RMK A01 T02760111  RH  036%=      5-min Rain = 0
KHA2 241706Z 24012KT 28/11 A2985 RMK A01 T02760109  RH  035%=      5-min Rain = 0
KHA2 241707Z 23014KT 28/11 A2985 RMK A01 T02770109  RH  035%=      5-min Rain = 0
KHA2 241708Z 22012G17KT 28/11 A2985 RMK A01 T02770105  RH  034%=      5-min Rain = 0
KHA2 241709Z 21008KT 27/10 A2985 RMK A01 T02740104  RH  035%=      5-min Rain = 0
KHA2 241710Z 23010KT 28/10 A2985 RMK A01 T02750101  RH  034%=      5-min Rain = 0
KHA2 241711Z 24010G16KT 28/11 A2985 RMK A01 T02750107  RH  035%=      5-min Rain = 0
KHA2 241712Z 25016KT 28/10 A2985 RMK A01 T02750104  RH  034%=      5-min Rain = 0
KHA2 241713Z 26011KT 28/10 A2985 RMK A01 T02750100  RH  033%=      5-min Rain = 0
KHA2 241714Z 24009KT 27/11 A2985 RMK A01 T02730106  RH  035%=      5-min Rain = 0
KHA2 241715Z 24008G13KT 27/10 A2985 RMK A01 T02740103  RH  034%=      5-min Rain = 0
KHA2 241716Z 22007KT 27/11 A2985 RMK A01 T02740107  RH  035%=      5-min Rain = 0
KHA2 241717Z 22010KT 28/11 A2985 RMK A01 T02750111  RH  036%=      5-min Rain = 0
KHA2 241718Z 22013KT 28/11 A2985 RMK A01 T02810109  RH  034%=      5-min Rain = 0
KHA2 241719Z 23013KT 28/10 A2985 RMK A01 T02840100  RH  032%=      5-min Rain = 0
KHA2 241720Z 22013KT 28/10 A2985 RMK A01 T02820103  RH  033%=      5-min Rain = 0
KHA2 241721Z 22012KT 28/10 A2985 RMK A01 T02820101  RH  032%=      5-min Rain = 0
KHA2 241722Z 24012KT 28/10 A2985 RMK A01 T02800103  RH  033%=      5-min Rain = 0
KHA2 241723Z 25012KT 28/10 A2985 RMK A01 T02830101  RH  032%=      5-min Rain = 0
KHA2 241724Z 25010KT 28/10 A2985 RMK A01 T02790096  RH  032%=      5-min Rain = 0
KHA2 241725Z 25010KT 28/10 A2985 RMK A01 T02780096  RH  032%=      5-min Rain = 0
KHA2 241726Z 24014KT 28/09 A2985 RMK A01 T02810092  RH  031%=      5-min Rain = 0
KHA2 241727Z 26015KT 28/08 A2985 RMK A01 T02810084  RH  029%=      5-min Rain = 0
KHA2 241728Z 25013KT 28/09 A2985 RMK A01 T02810088  RH  030%=      5-min Rain = 0
KHA2 241729Z 26010KT 28/09 A2985 RMK A01 T02800090  RH  030%=      5-min Rain = 0
KHA2 241730Z 26011KT 28/09 A2985 RMK A01 T02790092  RH  031%=      5-min Rain = 0
KHA2 241731Z 27009KT 28/09 A2985 RMK A01 T02800093  RH  031%=      5-min Rain = 0
KHA2 241732Z 27008G13KT 28/09 A2985 RMK A01 T02800093  RH  031%=      5-min Rain = 0
KHA2 241733Z 27009KT 28/10 A2985 RMK A01 T02800095  RH  031%=      5-min Rain = 0
KHA2 241734Z 25009G14KT 28/09 A2985 RMK A01 T02790093  RH  031%=      5-min Rain = 0
KHA2 241735Z 24012KT 28/10 A2985 RMK A01 T02800095  RH  031%=      5-min Rain = 0
KHA2 241736Z 25011KT 28/10 A2985 RMK A01 T02820098  RH  032%=      5-min Rain = 0
KHA2 241737Z 26008KT 28/10 A2985 RMK A01 T02840098  RH  031%=      5-min Rain = 0
KHA2 241738Z 24008KT 28/10 A2985 RMK A01 T02830100  RH  032%=      5-min Rain = 0
KHA2 241739Z 20011G16KT 28/10 A2985 RMK A01 T02830095  RH  031%=      5-min Rain = 0
KHA2 241740Z 21014KT 29/10 A2985 RMK A01 T02860095  RH  030%=      5-min Rain = 0
KHA2 241741Z 21008G13KT 29/10 A2985 RMK A01 T02870099  RH  031%=      5-min Rain = 0
KHA2 241742Z 23008KT 29/10 A2985 RMK A01 T02860102  RH  032%=      5-min Rain = 0
KHA2 241743Z 24010KT 29/10 A2985 RMK A01 T02900101  RH  031%=      5-min Rain = 0
KHA2 241744Z 22012KT 29/10 A2984 RMK A01 T02920101  RH  031%=      5-min Rain = 0
KHA2 241745Z 21010KT 29/10 A2984 RMK A01 T02930104  RH  031%=      5-min Rain = 0
KHA2 241746Z 22010KT 29/11 A2984 RMK A01 T02890106  RH  032%=      5-min Rain = 0
KHA2 241747Z 21012KT 29/11 A2984 RMK A01 T02900106  RH  032%=      5-min Rain = 0
KHA2 241748Z 24010KT 29/11 A2984 RMK A01 T02930105  RH  031%=      5-min Rain = 0
KHA2 241749Z 25009G14KT 29/10 A2985 RMK A01 T02940102  RH  030%=      5-min Rain = 0
KHA2 241750Z 26011KT 29/10 A2984 RMK A01 T02920099  RH  030%=      5-min Rain = 0
KHA2 241751Z 25008KT 29/10 A2985 RMK A01 T02890098  RH  030%=      5-min Rain = 0
KHA2 241752Z 22009KT 29/10 A2984 RMK A01 T02880097  RH  030%=      5-min Rain = 0
KHA2 241753Z 25012KT 30/09 A2984 RMK A01 T02970091  RH  028%=      5-min Rain = 0
KHA2 241754Z 25012KT 30/10 A2984 RMK A01 T02990098  RH  029%=      5-min Rain = 0
KHA2 241755Z 24010KT 29/10 A2984 RMK A01 T02940099  RH  030%=      5-min Rain = 0
KHA2 241756Z 26009KT 29/09 A2984 RMK A01 T02890090  RH  029%=      5-min Rain = 0
KHA2 241757Z 26008KT 29/09 A2984 RMK A01 T02870091  RH  029%=      5-min Rain = 0
KHA2 241758Z 27007KT 29/09 A2984 RMK A01 T02890093  RH  029%=      5-min Rain = 0
KHA2 241759Z 22008G14KT 29/10 A2984 RMK A01 T02930100  RH  030%=      5-min Rain = 0
KHA2 241800Z 23011KT 29/10 A2984 RMK A01 T02940098  RH  029%=      5-min Rain = 0
KHA2 241801Z 21012KT 29/10 A2984 RMK A01 T02930102  RH  030%=      5-min Rain = 0
KHA2 241802Z 21009KT 29/11 A2984 RMK A01 T02940106  RH  031%=      5-min Rain = 0
KHA2 241803Z 22010G17KT 29/11 A2984 RMK A01 T02930105  RH  031%=      5-min Rain = 0
KHA2 241804Z 22010KT 29/10 A2984 RMK A01 T02910101  RH  031%=      5-min Rain = 0
KHA2 241805Z 21007KT 29/10 A2984 RMK A01 T02880096  RH  030%=      5-min Rain = 0
KHA2 241806Z 22008G14KT 29/10 A2984 RMK A01 T02880096  RH  030%=      5-min Rain = 0
KHA2 241807Z 22011KT 29/10 A2984 RMK A01 T02890102  RH  031%=      5-min Rain = 0
KHA2 241808Z 22010KT 29/10 A2984 RMK A01 T02930103  RH  031%=      5-min Rain = 0
KHA2 241809Z 21009G14KT 30/11 A2984 RMK A01 T02980105  RH  030%=      5-min Rain = 0
KHA2 241810Z 20010KT 30/11 A2984 RMK A01 T02970105  RH  030%=      5-min Rain = 0
KHA2 241811Z 22009KT 30/10 A2984 RMK A01 T02960104  RH  030%=      5-min Rain = 0
KHA2 241812Z 22013KT 30/10 A2984 RMK A01 T02950104  RH  031%=      5-min Rain = 0
KHA2 241813Z 23013KT 29/11 A2984 RMK A01 T02940105  RH  031%=      5-min Rain = 0
KHA2 241814Z 23014KT 30/11 A2984 RMK A01 T02960106  RH  031%=      5-min Rain = 0
KHA2 241815Z 22010KT 29/10 A2984 RMK A01 T02930102  RH  030%=      5-min Rain = 0
KHA2 241816Z 22006KT 29/10 A2984 RMK A01 T02890101  RH  031%=      5-min Rain = 0
KHA2 241817Z 22004G10KT 29/10 A2984 RMK A01 T02870101  RH  031%=      5-min Rain = 0
KHA2 241818Z 22013KT 29/10 A2984 RMK A01 T02900102  RH  031%=      5-min Rain = 0
KHA2 241819Z 23011KT 29/10 A2984 RMK A01 T02940099  RH  030%=      5-min Rain = 0
KHA2 241820Z 22011KT 29/10 A2984 RMK A01 T02930097  RH  030%=      5-min Rain = 0
KHA2 241821Z 23008KT 29/10 A2984 RMK A01 T02910099  RH  030%=      5-min Rain = 0
KHA2 241822Z 21012KT 29/11 A2983 RMK A01 T02900106  RH  032%=      5-min Rain = 0
KHA2 241823Z 20011KT 29/11 A2983 RMK A01 T02940106  RH  031%=      5-min Rain = 0
KHA2 241824Z 19008KT 30/11 A2983 RMK A01 T02950106  RH  031%=      5-min Rain = 0
KHA2 241825Z 20007KT 30/11 A2983 RMK A01 T02950105  RH  031%=      5-min Rain = 0
KHA2 241826Z 23012KT 30/10 A2983 RMK A01 T02950099  RH  030%=      5-min Rain = 0
KHA2 241827Z 24015KT 30/10 A2983 RMK A01 T02960096  RH  029%=      5-min Rain = 0
KHA2 241828Z 25013KT 30/10 A2983 RMK A01 T02970098  RH  029%=      5-min Rain = 0
KHA2 241829Z 25010KT 30/10 A2983 RMK A01 T02950099  RH  029%=      5-min Rain = 0
KHA2 241830Z 24009KT 29/10 A2983 RMK A01 T02940098  RH  029%=      5-min Rain = 0
KHA2 241831Z 25007KT 29/10 A2983 RMK A01 T02910097  RH  030%=      5-min Rain = 0
KHA2 241832Z 24009KT 29/10 A2983 RMK A01 T02900100  RH  031%=      5-min Rain = 0
KHA2 241833Z 24005KT 29/10 A2983 RMK A01 T02910097  RH  030%=      5-min Rain = 0
KHA2 241834Z 23006KT 29/10 A2983 RMK A01 T02900099  RH  030%=      5-min Rain = 0
KHA2 241835Z 23006KT 29/10 A2983 RMK A01 T02910102  RH  031%=      5-min Rain = 0
KHA2 241836Z 24007KT 30/10 A2983 RMK A01 T02950101  RH  030%=      5-min Rain = 0
KHA2 241837Z 23007KT 30/10 A2983 RMK A01 T02980098  RH  029%=      5-min Rain = 0
KHA2 241838Z 22006KT 30/10 A2983 RMK A01 T02970095  RH  028%=      5-min Rain = 0
KHA2 241839Z 22009G16KT 30/10 A2983 RMK A01 T02970096  RH  029%=      5-min Rain = 0
KHA2 241840Z 22013KT 30/09 A2983 RMK A01 T03000093  RH  028%=      5-min Rain = 0
KHA2 241841Z 20010KT 30/09 A2983 RMK A01 T03030088  RH  026%=      5-min Rain = 0
KHA2 241842Z 21008KT 30/09 A2983 RMK A01 T03010087  RH  026%=      5-min Rain = 0
KHA2 241843Z 24011KT 30/09 A2983 RMK A01 T03020091  RH  027%=      5-min Rain = 0
KHA2 241844Z 26011KT 31/09 A2983 RMK A01 T03060088  RH  026%=      5-min Rain = 0
KHA2 241845Z 25011KT 30/09 A2983 RMK A01 T03040090  RH  026%=      5-min Rain = 0
KHA2 241846Z 26010KT 30/09 A2983 RMK A01 T03030092  RH  027%=      5-min Rain = 0
KHA2 241847Z 26009KT 30/09 A2983 RMK A01 T03000093  RH  028%=      5-min Rain = 0
KHA2 241848Z 23010KT 30/10 A2983 RMK A01 T03000095  RH  028%=      5-min Rain = 0
KHA2 241849Z 20010KT 30/09 A2983 RMK A01 T03000090  RH  027%=      5-min Rain = 0
KHA2 241850Z 19009KT 30/09 A2982 RMK A01 T03010091  RH  027%=      5-min Rain = 0
KHA2 241851Z 19008KT 30/09 A2983 RMK A01 T03010089  RH  027%=      5-min Rain = 0
KHA2 241852Z 18005KT 30/09 A2982 RMK A01 T03000086  RH  026%=      5-min Rain = 0
KHA2 241853Z 23003KT 30/09 A2982 RMK A01 T03000089  RH  027%=      5-min Rain = 0
KHA2 241854Z 23009KT 30/09 A2982 RMK A01 T03010088  RH  027%=      5-min Rain = 0
KHA2 241855Z 22011G16KT 31/08 A2982 RMK A01 T03060084  RH  025%=      5-min Rain = 0
KHA2 241856Z 21011KT 31/07 A2982 RMK A01 T03110073  RH  023%=      5-min Rain = 0
KHA2 241857Z 24013KT 31/08 A2982 RMK A01 T03100076  RH  023%=      5-min Rain = 0
KHA2 241858Z 23010KT 31/07 A2982 RMK A01 T03090069  RH  022%=      5-min Rain = 0
KHA2 241859Z 23011KT 31/07 A2982 RMK A01 T03060070  RH  023%=      5-min Rain = 0
KHA2 241900Z 22012KT 31/06 A2982 RMK A01 T03070063  RH  022%=      5-min Rain = 0
KHA2 241901Z 24008KT 31/06 A2982 RMK A01 T03090060  RH  021%=      5-min Rain = 0
KHA2 241902Z 23004KT 31/06 A2982 RMK A01 T03060059  RH  021%=      5-min Rain = 0
KHA2 241903Z 25005KT 31/06 A2982 RMK A01 T03050058  RH  021%=      5-min Rain = 0
KHA2 241904Z 23008KT 31/06 A2982 RMK A01 T03050057  RH  021%=      5-min Rain = 0
KHA2 241905Z 22012KT 31/06 A2982 RMK A01 T03060058  RH  021%=      5-min Rain = 0
KHA2 241906Z 21013KT 31/05 A2982 RMK A01 T03090047  RH  019%=      5-min Rain = 0
KHA2 241907Z 22012KT 32/05 A2982 RMK A01 T03150049  RH  019%=      5-min Rain = 0
KHA2 241908Z 22012KT 32/03 A2982 RMK A01 T03180033  RH  016%=      5-min Rain = 0
KHA2 241909Z 22008KT 31/02 A2982 RMK A01 T03130021  RH  016%=      5-min Rain = 0
KHA2 241910Z 22013G18KT 31/04 A2982 RMK A01 T03080039  RH  018%=      5-min Rain = 0
KHA2 241911Z 23014KT 31/03 A2982 RMK A01 T03110034  RH  017%=      5-min Rain = 0
KHA2 241912Z 23010KT 31/03 A2982 RMK A01 T03090029  RH  017%=      5-min Rain = 0
KHA2 241913Z 22005KT 31/03 A2982 RMK A01 T03050030  RH  017%=      5-min Rain = 0
KHA2 241914Z 29004KT 31/03 A2982 RMK A01 T03050032  RH  018%=      5-min Rain = 0
KHA2 241915Z 27007KT 30/03 A2982 RMK A01 T03040032  RH  018%=      5-min Rain = 0
KHA2 241916Z 28006KT 31/03 A2981 RMK A01 T03060027  RH  017%=      5-min Rain = 0
KHA2 241917Z 25004KT 31/04 A2981 RMK A01 T03060037  RH  018%=      5-min Rain = 0
KHA2 241918Z 24008KT 30/04 A2981 RMK A01 T03040043  RH  019%=      5-min Rain = 0
KHA2 241919Z 24011G16KT 30/05 A2981 RMK A01 T03040049  RH  020%=      5-min Rain = 0
KHA2 241920Z 22012KT 31/06 A2981 RMK A01 T03080064  RH  022%=      5-min Rain = 0
KHA2 241921Z 22012KT 31/07 A2981 RMK A01 T03110069  RH  022%=      5-min Rain = 0
KHA2 241922Z 24012KT 31/07 A2981 RMK A01 T03130066  RH  021%=      5-min Rain = 0
KHA2 241923Z 25008KT 31/06 A2981 RMK A01 T03110058  RH  020%=      5-min Rain = 0
KHA2 241924Z 25009KT 31/06 A2981 RMK A01 T03070058  RH  021%=      5-min Rain = 0
KHA2 241925Z 25006KT 31/06 A2981 RMK A01 T03060058  RH  021%=      5-min Rain = 0
KHA2 241926Z 20009KT 31/06 A2981 RMK A01 T03080063  RH  022%=      5-min Rain = 0
KHA2 241927Z 19010KT 31/06 A2981 RMK A01 T03130060  RH  020%=      5-min Rain = 0
KHA2 241928Z 17009KT 32/06 A2981 RMK A01 T03150060  RH  020%=      5-min Rain = 0
KHA2 241929Z 16010KT 31/06 A2981 RMK A01 T03130060  RH  021%=      5-min Rain = 0
KHA2 241930Z 20007KT 31/06 A2981 RMK A01 T03120058  RH  020%=      5-min Rain = 0
KHA2 241931Z 23011KT 31/06 A2981 RMK A01 T03110058  RH  020%=      5-min Rain = 0
KHA2 241932Z 25011KT 31/05 A2981 RMK A01 T03140047  RH  019%=      5-min Rain = 0
KHA2 241933Z 26012KT 31/04 A2981 RMK A01 T03140044  RH  018%=      5-min Rain = 0
KHA2 241934Z 25011KT 31/05 A2981 RMK A01 T03120047  RH  019%=      5-min Rain = 0
KHA2 241935Z 23014KT 31/05 A2981 RMK A01 T03110051  RH  019%=      5-min Rain = 0
KHA2 241936Z 22011KT 31/05 A2981 RMK A01 T03120049  RH  019%=      5-min Rain = 0
KHA2 241937Z 24009KT 31/05 A2981 RMK A01 T03120050  RH  019%=      5-min Rain = 0
KHA2 241938Z 22006KT 31/05 A2981 RMK A01 T03110049  RH  019%=      5-min Rain = 0
KHA2 241939Z 25008KT 31/05 A2981 RMK A01 T03090051  RH  020%=      5-min Rain = 0
KHA2 241940Z 27007KT 31/05 A2981 RMK A01 T03070050  RH  020%=      5-min Rain = 0
KHA2 241941Z 27005KT 31/05 A298 RMK A01 T03050052  RH  020%=      5-min Rain = 0
KHA2 241942Z 24007KT 31/06 A298 RMK A01 T03060055  RH  021%=      5-min Rain = 0
KHA2 241943Z 24003KT 31/05 A298 RMK A01 T03060052  RH  020%=      5-min Rain = 0
KHA2 241944Z 27006KT 31/05 A298 RMK A01 T03060054  RH  020%=      5-min Rain = 0
KHA2 241945Z 25008KT 31/05 A298 RMK A01 T03080053  RH  020%=      5-min Rain = 0
KHA2 241946Z 29005KT 31/05 A298 RMK A01 T03090050  RH  020%=      5-min Rain = 0
KHA2 241947Z 23005KT 31/05 A298 RMK A01 T03070051  RH  020%=      5-min Rain = 0
KHA2 241948Z 24009KT 31/05 A298 RMK A01 T03060054  RH  020%=      5-min Rain = 0
KHA2 241949Z 24010KT 31/06 A298 RMK A01 T03090058  RH  021%=      5-min Rain = 0
KHA2 241950Z 21005KT 31/06 A298 RMK A01 T03110057  RH  020%=      5-min Rain = 0
KHA2 241951Z 21003KT 31/06 A298 RMK A01 T03110056  RH  020%=      5-min Rain = 0
KHA2 241952Z 24005KT 31/06 A298 RMK A01 T03110056  RH  020%=      5-min Rain = 0
KHA2 241953Z 23010G17KT 31/06 A298 RMK A01 T03110057  RH  020%=      5-min Rain = 0
KHA2 241954Z 26010G16KT 32/06 A2979 RMK A01 T03150057  RH  020%=      5-min Rain = 0
KHA2 241955Z 25008G13KT 32/06 A2979 RMK A01 T03230060  RH  019%=      5-min Rain = 0
KHA2 241956Z 23010KT 32/06 A2979 RMK A01 T03240055  RH  019%=      5-min Rain = 0
KHA2 241957Z 19011KT 32/06 A2979 RMK A01 T03190056  RH  019%=      5-min Rain = 0
KHA2 241958Z 18013KT 32/06 A2979 RMK A01 T03210056  RH  019%=      5-min Rain = 0
KHA2 241959Z 18013KT 32/05 A2979 RMK A01 T03170053  RH  019%=      5-min Rain = 0
KHA2 242000Z 18013KT 31/05 A298 RMK A01 T03130051  RH  019%=      5-min Rain = 0
KHA2 242001Z 18012KT 31/05 A298 RMK A01 T03100049  RH  019%=      5-min Rain = 0
KHA2 242002Z 19010KT 31/05 A298 RMK A01 T03070049  RH  020%=      5-min Rain = 0
KHA2 242003Z 17007KT 31/05 A298 RMK A01 T03050050  RH  020%=      5-min Rain = 0
KHA2 242004Z 19009KT 31/05 A298 RMK A01 T03050050  RH  020%=      5-min Rain = 0
KHA2 242005Z 19011KT 31/05 A298 RMK A01 T03070053  RH  020%=      5-min Rain = 0
KHA2 242006Z 20011KT 31/05 A2979 RMK A01 T03110054  RH  020%=      5-min Rain = 0
KHA2 242007Z 22009KT 31/05 A2979 RMK A01 T03120050  RH  019%=      5-min Rain = 0
KHA2 242008Z 21007KT 31/05 A2979 RMK A01 T03110048  RH  019%=      5-min Rain = 0
KHA2 242009Z 20010KT 31/05 A2979 RMK A01 T03110050  RH  019%=      5-min Rain = 0
KHA2 242010Z 19006KT 31/05 A2979 RMK A01 T03080047  RH  019%=      5-min Rain = 0
KHA2 242011Z 18007KT 30/05 A2979 RMK A01 T03040046  RH  019%=      5-min Rain = 0
KHA2 242012Z 18006KT 30/05 A2979 RMK A01 T03020046  RH  020%=      5-min Rain = 0
KHA2 242013Z 18008KT 30/05 A2979 RMK A01 T03010052  RH  021%=      5-min Rain = 0
KHA2 242014Z 19008KT 30/05 A2979 RMK A01 T03010054  RH  021%=      5-min Rain = 0
KHA2 242015Z 17007KT 30/06 A2979 RMK A01 T03010055  RH  021%=      5-min Rain = 0
KHA2 242016Z 19010KT 30/06 A2979 RMK A01 T03020057  RH  021%=      5-min Rain = 0
KHA2 242017Z 18010KT 30/06 A2979 RMK A01 T03030058  RH  021%=      5-min Rain = 0
KHA2 242018Z 17008KT 30/06 A2979 RMK A01 T03030056  RH  021%=      5-min Rain = 0
KHA2 242019Z 17007KT 31/06 A2979 RMK A01 T03050057  RH  021%=      5-min Rain = 0
KHA2 242020Z 16007KT 31/06 A2979 RMK A01 T03080059  RH  021%=      5-min Rain = 0
KHA2 242021Z 15006KT 31/06 A2979 RMK A01 T03110057  RH  020%=      5-min Rain = 0
KHA2 242022Z 14003KT 31/06 A2979 RMK A01 T03120056  RH  020%=      5-min Rain = 0
KHA2 242023Z 16004KT 31/05 A2979 RMK A01 T03120053  RH  020%=      5-min Rain = 0
KHA2 242024Z 17003KT 31/05 A2979 RMK A01 T03110054  RH  020%=      5-min Rain = 0
KHA2 242025Z 18004KT 31/05 A2979 RMK A01 T03110053  RH  020%=      5-min Rain = 0
KHA2 242026Z 22004KT 31/05 A2979 RMK A01 T03110053  RH  020%=      5-min Rain = 0
KHA2 242027Z 22006KT 31/05 A2979 RMK A01 T03110054  RH  020%=      5-min Rain = 0
KHA2 242028Z 22006KT 31/05 A2978 RMK A01 T03110052  RH  020%=      5-min Rain = 0
KHA2 242029Z 22008KT 31/05 A2978 RMK A01 T03100051  RH  020%=      5-min Rain = 0
KHA2 242030Z 23006KT 31/05 A2978 RMK A01 T03070051  RH  020%=      5-min Rain = 0
KHA2 242031Z 23009G14KT 31/05 A2978 RMK A01 T03070053  RH  020%=      5-min Rain = 0
KHA2 242032Z 24011KT 31/05 A2978 RMK A01 T03090052  RH  020%=      5-min Rain = 0
KHA2 242033Z 25011KT 31/05 A2978 RMK A01 T03090051  RH  020%=      5-min Rain = 0
KHA2 242034Z 23010KT 31/05 A2978 RMK A01 T03090049  RH  019%=      5-min Rain = 0
KHA2 242035Z 23009KT 31/05 A2978 RMK A01 T03100046  RH  019%=      5-min Rain = 0
KHA2 242036Z 22009KT 31/05 A2978 RMK A01 T03090046  RH  019%=      5-min Rain = 0
KHA2 242037Z 23010KT 31/05 A2978 RMK A01 T03090048  RH  019%=      5-min Rain = 0
KHA2 242038Z 25008G13KT 31/05 A2978 RMK A01 T03070045  RH  019%=      5-min Rain = 0
KHA2 242039Z 26009KT 30/04 A2978 RMK A01 T03040044  RH  019%=      5-min Rain = 0
KHA2 242040Z 26009KT 30/04 A2978 RMK A01 T03040043  RH  019%=      5-min Rain = 0
KHA2 242041Z 24008KT 31/05 A2978 RMK A01 T03050045  RH  019%=      5-min Rain = 0
KHA2 242042Z 21009KT 31/05 A2978 RMK A01 T03050047  RH  020%=      5-min Rain = 0
KHA2 242043Z 21009KT 31/05 A2978 RMK A01 T03050045  RH  019%=      5-min Rain = 0
KHA2 242044Z 21005KT 31/04 A2978 RMK A01 T03050042  RH  019%=      5-min Rain = 0
KHA2 242045Z 26006KT 30/04 A2978 RMK A01 T03040044  RH  019%=      5-min Rain = 0
KHA2 242046Z 24007KT 30/05 A2978 RMK A01 T03040045  RH  019%=      5-min Rain = 0
KHA2 242047Z 23008KT 30/05 A2978 RMK A01 T03040047  RH  020%=      5-min Rain = 0
KHA2 242048Z 24007KT 31/05 A2978 RMK A01 T03060047  RH  019%=      5-min Rain = 0
KHA2 242049Z 26008KT 31/05 A2978 RMK A01 T03060048  RH  020%=      5-min Rain = 0
KHA2 242050Z 27010KT 31/05 A2978 RMK A01 T03050051  RH  020%=      5-min Rain = 0
KHA2 242051Z 27007KT 30/05 A2978 RMK A01 T03040051  RH  020%=      5-min Rain = 0
KHA2 242052Z 28006KT 30/05 A2977 RMK A01 T03030052  RH  020%=      5-min Rain = 0
KHA2 242053Z 28006KT 30/05 A2977 RMK A01 T03030052  RH  020%=      5-min Rain = 0
KHA2 242054Z 29007KT 30/05 A2977 RMK A01 T03030050  RH  020%=      5-min Rain = 0
KHA2 242055Z 29007KT 30/05 A2977 RMK A01 T03030049  RH  020%=      5-min Rain = 0
KHA2 242056Z 29005KT 30/05 A2977 RMK A01 T03020050  RH  020%=      5-min Rain = 0
KHA2 242057Z 28006KT 30/05 A2977 RMK A01 T03010050  RH  020%=      5-min Rain = 0
KHA2 242058Z 27007KT 30/05 A2977 RMK A01 T03020048  RH  020%=      5-min Rain = 0
KHA2 242059Z 28007KT 30/05 A2977 RMK A01 T03030045  RH  019%=      5-min Rain = 0
KHA2 242100Z 26010KT 30/04 A2977 RMK A01 T03040044  RH  019%=      5-min Rain = 0
KHA2 242101Z 25010KT 31/04 A2977 RMK A01 T03050042  RH  019%=      5-min Rain = 0
KHA2 242102Z 26009KT 31/04 A2977 RMK A01 T03060042  RH  019%=      5-min Rain = 0
KHA2 242103Z 25008KT 31/04 A2977 RMK A01 T03050043  RH  019%=      5-min Rain = 0
KHA2 242104Z 25009KT 31/04 A2977 RMK A01 T03050043  RH  019%=      5-min Rain = 0
KHA2 242105Z 25009KT 30/04 A2977 RMK A01 T03040042  RH  019%=      5-min Rain = 0
KHA2 242106Z 25008KT 30/04 A2977 RMK A01 T03030043  RH  019%=      5-min Rain = 0
KHA2 242107Z 25009KT 30/04 A2977 RMK A01 T03020040  RH  019%=      5-min Rain = 0
KHA2 242108Z 24008KT 30/04 A2977 RMK A01 T03010040  RH  019%=      5-min Rain = 0
KHA2 242109Z 24007KT 30/04 A2977 RMK A01 T03020040  RH  019%=      5-min Rain = 0
KHA2 242110Z 22006KT 30/04 A2977 RMK A01 T03020041  RH  019%=      5-min Rain = 0
KHA2 242111Z 21008KT 30/04 A2977 RMK A01 T03020041  RH  019%=      5-min Rain = 0
KHA2 242112Z 20009KT 30/04 A2977 RMK A01 T03010044  RH  020%=      5-min Rain = 0
KHA2 242113Z 18013KT 30/06 A2977 RMK A01 T03010056  RH  021%=      5-min Rain = 0
KHA2 242114Z 17010KT 30/09 A2977 RMK A01 T02990088  RH  027%=      5-min Rain = 0
KHA2 242115Z 17014KT 30/10 A2977 RMK A01 T02970095  RH  029%=      5-min Rain = 0
KHA2 242116Z 17015KT 29/10 A2977 RMK A01 T02940098  RH  029%=      5-min Rain = 0
KHA2 242117Z 16017KT 29/11 A2977 RMK A01 T02920106  RH  031%=      5-min Rain = 0
KHA2 242118Z 16016KT 29/11 A2977 RMK A01 T02900109  RH  032%=      5-min Rain = 0
KHA2 242119Z 16014KT 29/11 A2976 RMK A01 T02890108  RH  032%=      5-min Rain = 0
KHA2 242120Z 16016KT 29/11 A2976 RMK A01 T02890108  RH  032%=      5-min Rain = 0
KHA2 242121Z 16015KT 29/11 A2976 RMK A01 T02890109  RH  033%=      5-min Rain = 0
KHA2 242122Z 16014KT 29/11 A2976 RMK A01 T02880111  RH  033%=      5-min Rain = 0
KHA2 242123Z 16015G20KT 29/11 A2976 RMK A01 T02880114  RH  034%=      5-min Rain = 0
KHA2 242124Z 16022KT 29/11 A2976 RMK A01 T02880109  RH  033%=      5-min Rain = 0
KHA2 242125Z 16021KT 29/08 A2976 RMK A01 T02860078  RH  027%=      5-min Rain = 0
KHA2 242126Z 16018KT 29/05 A2976 RMK A01 T02850049  RH  022%=      5-min Rain = 0
KHA2 242127Z 16020KT 29/05 A2976 RMK A01 T02850046  RH  022%=      5-min Rain = 0
KHA2 242128Z 16021KT 28/05 A2976 RMK A01 T02810051  RH  023%=      5-min Rain = 0
KHA2 242129Z 16020KT 28/05 A2976 RMK A01 T02780054  RH  024%=      5-min Rain = 0
KHA2 242130Z 15019KT 27/05 A2976 RMK A01 T02740051  RH  024%=      5-min Rain = 0
KHA2 242131Z 15018KT 27/05 A2976 RMK A01 T02720052  RH  024%=      5-min Rain = 0
KHA2 242132Z 15018KT 27/05 A2976 RMK A01 T02720052  RH  025%=      5-min Rain = 0
KHA2 242133Z 15018KT 27/05 A2976 RMK A01 T02710052  RH  025%=      5-min Rain = 0
KHA2 242134Z 15016KT 27/05 A2976 RMK A01 T02710052  RH  025%=      5-min Rain = 0
KHA2 242135Z 15014KT 27/05 A2976 RMK A01 T02710054  RH  025%=      5-min Rain = 0
KHA2 242136Z 15014KT 27/06 A2976 RMK A01 T02710057  RH  026%=      5-min Rain = 0
KHA2 242137Z 15014KT 27/06 A2976 RMK A01 T02710060  RH  026%=      5-min Rain = 0
KHA2 242138Z 15017KT 27/06 A2976 RMK A01 T02720061  RH  026%=      5-min Rain = 0
KHA2 242139Z 15016KT 27/06 A2976 RMK A01 T02730061  RH  026%=      5-min Rain = 0
KHA2 242140Z 15016KT 27/06 A2976 RMK A01 T02740064  RH  026%=      5-min Rain = 0
KHA2 242141Z 15015KT 27/07 A2976 RMK A01 T02740068  RH  027%=      5-min Rain = 0
KHA2 242142Z 15013KT 27/07 A2976 RMK A01 T02740074  RH  028%=      5-min Rain = 0
KHA2 242143Z 15015KT 27/08 A2976 RMK A01 T02740083  RH  030%=      5-min Rain = 0
KHA2 242144Z 15015KT 27/08 A2976 RMK A01 T02740084  RH  030%=      5-min Rain = 0
KHA2 242145Z 15014KT 27/09 A2976 RMK A01 T02730086  RH  031%=      5-min Rain = 0
KHA2 242146Z 15013G18KT 27/09 A2976 RMK A01 T02740087  RH  031%=      5-min Rain = 0
KHA2 242147Z 16015KT 27/09 A2976 RMK A01 T02730088  RH  031%=      5-min Rain = 0
KHA2 242148Z 17015KT 27/09 A2976 RMK A01 T02740091  RH  032%=      5-min Rain = 0
KHA2 242149Z 17016KT 27/09 A2976 RMK A01 T02730089  RH  031%=      5-min Rain = 0
KHA2 242150Z 17017KT 27/09 A2976 RMK A01 T02740087  RH  031%=      5-min Rain = 0
KHA2 242151Z 19022G27KT 27/09 A2976 RMK A01 T02740087  RH  031%=      5-min Rain = 0
KHA2 242152Z 19023KT 27/08 A2976 RMK A01 T02720078  RH  029%=      5-min Rain = 0
KHA2 242153Z 18028G33KT 27/07 A2976 RMK A01 T02680073  RH  029%=      5-min Rain = 0
KHA2 242154Z 19028KT 27/07 A2976 RMK A01 T02650066  RH  028%=      5-min Rain = 0
KHA2 242155Z 19021KT 26/07 A2976 RMK A01 T02620066  RH  029%=      5-min Rain = 0
KHA2 242156Z 19024KT 26/07 A2975 RMK A01 T02570070  RH  030%=      5-min Rain = 0
KHA2 242157Z 18026KT 25/07 A2975 RMK A01 T02530070  RH  031%=      5-min Rain = 0
KHA2 242158Z 18024KT 25/07 A2975 RMK A01 T02510068  RH  031%=      5-min Rain = 0
KHA2 242159Z 17025KT 25/07 A2975 RMK A01 T02490067  RH  031%=      5-min Rain = 0
KHA2 242200Z 17025KT 25/06 A2975 RMK A01 T02500061  RH  030%=      5-min Rain = 0
KHA2 242201Z 16023KT 25/06 A2975 RMK A01 T02510058  RH  029%=      5-min Rain = 0
KHA2 242202Z 16022KT 25/06 A2975 RMK A01 T02510064  RH  030%=      5-min Rain = 0
KHA2 242203Z 16021KT 25/07 A2975 RMK A01 T02470070  RH  032%=      5-min Rain = 0
KHA2 242204Z 16018KT 24/07 A2975 RMK A01 T02420074  RH  034%=      5-min Rain = 0
KHA2 242205Z 16016KT 24/08 A2975 RMK A01 T02380082  RH  037%=      5-min Rain = 0
KHA2 242206Z 15019KT 23/08 A2974 RMK A01 T02340083  RH  038%=      5-min Rain = 0
KHA2 242207Z 15020KT 23/08 A2974 RMK A01 T02320083  RH  038%=      5-min Rain = 0
KHA2 242208Z 16019KT 23/09 A2974 RMK A01 T02280089  RH  041%=      5-min Rain = 0
KHA2 242209Z 16017KT 22/09 A2974 RMK A01 T02240094  RH  043%=      5-min Rain = 0
KHA2 242210Z 16016KT 22/10 A2974 RMK A01 T02200098  RH  046%=      5-min Rain = 0
KHA2 242211Z 15014KT 22/10 A2974 RMK A01 T02170102  RH  048%=      5-min Rain = 0
KHA2 242212Z 15014KT 22/10 A2974 RMK A01 T02150102  RH  048%=      5-min Rain = 0
KHA2 242213Z 15013KT 22/10 A2974 RMK A01 T02150101  RH  048%=      5-min Rain = 0
KHA2 242214Z 16012KT 22/10 A2974 RMK A01 T02170102  RH  048%=      5-min Rain = 0
KHA2 242215Z 17010KT 22/10 A2974 RMK A01 T02190095  RH  045%=      5-min Rain = 0
KHA2 242216Z 17010KT 22/10 A2974 RMK A01 T02230097  RH  045%=      5-min Rain = 0
KHA2 242217Z 17011KT 23/10 A2974 RMK A01 T02250097  RH  044%=      5-min Rain = 0
KHA2 242218Z 16011KT 23/10 A2974 RMK A01 T02280098  RH  044%=      5-min Rain = 0
KHA2 242219Z 16010KT 23/10 A2973 RMK A01 T02300097  RH  043%=      5-min Rain = 0
KHA2 242220Z 17011KT 23/10 A2973 RMK A01 T02320095  RH  042%=      5-min Rain = 0
KHA2 242221Z 16011KT 24/09 A2973 RMK A01 T02350092  RH  040%=      5-min Rain = 0
KHA2 242222Z 16011KT 24/09 A2973 RMK A01 T02380090  RH  039%=      5-min Rain = 0
KHA2 242223Z 16010KT 24/09 A2973 RMK A01 T02410090  RH  038%=      5-min Rain = 0
KHA2 242224Z 16010KT 24/09 A2973 RMK A01 T02420092  RH  038%=      5-min Rain = 0
KHA2 242225Z 16009KT 24/09 A2973 RMK A01 T02440092  RH  038%=      5-min Rain = 0
KHA2 242226Z 16009KT 25/09 A2973 RMK A01 T02450090  RH  037%=      5-min Rain = 0
KHA2 242227Z 16011KT 25/08 A2972 RMK A01 T02480084  RH  035%=      5-min Rain = 0
KHA2 242228Z 16012KT 25/07 A2972 RMK A01 T02520073  RH  032%=      5-min Rain = 0
KHA2 242229Z 17011KT 26/07 A2972 RMK A01 T02560069  RH  030%=      5-min Rain = 0
KHA2 242230Z 17010KT 26/07 A2972 RMK A01 T02590068  RH  029%=      5-min Rain = 0
KHA2 242231Z 18008KT 26/07 A2972 RMK A01 T02610069  RH  030%=      5-min Rain = 0
KHA2 242232Z 18008KT 26/07 A2972 RMK A01 T02610069  RH  029%=      5-min Rain = 0
KHA2 242233Z 17007KT 26/07 A2972 RMK A01 T02610068  RH  029%=      5-min Rain = 0
KHA2 242234Z 17007KT 26/07 A2972 RMK A01 T02610072  RH  030%=      5-min Rain = 0
KHA2 242235Z 17007KT 26/08 A2972 RMK A01 T02610076  RH  031%=      5-min Rain = 0
KHA2 242236Z 17008KT 26/08 A2972 RMK A01 T02590075  RH  031%=      5-min Rain = 0
KHA2 242237Z 17007KT 26/07 A2972 RMK A01 T02590071  RH  030%=      5-min Rain = 0
KHA2 242238Z 17007KT 26/07 A2972 RMK A01 T02590073  RH  031%=      5-min Rain = 0
KHA2 242239Z 17008KT 26/07 A2972 RMK A01 T02580074  RH  031%=      5-min Rain = 0
KHA2 242240Z 17009KT 26/08 A2972 RMK A01 T02570075  RH  031%=      5-min Rain = 0
KHA2 242241Z 17010KT 26/07 A2973 RMK A01 T02560074  RH  031%=      5-min Rain = 0
KHA2 242242Z 16009KT 26/07 A2973 RMK A01 T02550073  RH  031%=      5-min Rain = 0
KHA2 242243Z 16008KT 25/07 A2973 RMK A01 T02530074  RH  032%=      5-min Rain = 0
KHA2 242244Z 17008KT 25/08 A2973 RMK A01 T02520077  RH  033%=      5-min Rain = 0
KHA2 242245Z 17008KT 25/08 A2973 RMK A01 T02510078  RH  033%=      5-min Rain = 0
KHA2 242246Z 17009KT 25/08 A2973 RMK A01 T02500077  RH  033%=      5-min Rain = 0
KHA2 242247Z 17008KT 25/08 A2973 RMK A01 T02490076  RH  033%=      5-min Rain = 0
KHA2 242248Z 18007KT 25/08 A2973 RMK A01 T02490078  RH  034%=      5-min Rain = 0
KHA2 242249Z 17007KT 25/08 A2973 RMK A01 T02480081  RH  034%=      5-min Rain = 0
KHA2 242250Z 17008KT 25/08 A2973 RMK A01 T02470079  RH  034%=      5-min Rain = 0
KHA2 242251Z 17009KT 25/07 A2973 RMK A01 T02460071  RH  033%=      5-min Rain = 0
KHA2 242252Z 17010KT 25/07 A2973 RMK A01 T02480068  RH  032%=      5-min Rain = 0
KHA2 242253Z 17011KT 25/07 A2973 RMK A01 T02500065  RH  031%=      5-min Rain = 0
KHA2 242254Z 18010KT 25/06 A2972 RMK A01 T02530058  RH  029%=      5-min Rain = 0
KHA2 242255Z 18011KT 26/06 A2972 RMK A01 T02560056  RH  028%=      5-min Rain = 0
KHA2 242256Z 18008KT 26/06 A2972 RMK A01 T02590058  RH  028%=      5-min Rain = 0
KHA2 242257Z 18008KT 26/06 A2972 RMK A01 T02590061  RH  028%=      5-min Rain = 0
KHA2 242258Z 18007KT 26/06 A2972 RMK A01 T02590059  RH  028%=      5-min Rain = 0
KHA2 242259Z 18005KT 26/06 A2972 RMK A01 T02580060  RH  028%=      5-min Rain = 0
KHA2 242300Z 19004KT 26/06 A2972 RMK A01 T02570062  RH  029%=      5-min Rain = 0
KHA2 242301Z 20005KT 26/06 A2972 RMK A01 T02560059  RH  028%=      5-min Rain = 0
KHA2 242302Z 21004KT 26/06 A2971 RMK A01 T02550057  RH  028%=      5-min Rain = 0
KHA2 242303Z 23004KT 26/06 A2971 RMK A01 T02550057  RH  028%=      5-min Rain = 0
KHA2 242304Z 22006KT 26/06 A2971 RMK A01 T02560058  RH  028%=      5-min Rain = 0
KHA2 242305Z 20003KT 26/06 A2971 RMK A01 T02570061  RH  029%=      5-min Rain = 0
KHA2 242306Z 19005KT 26/06 A2971 RMK A01 T02560055  RH  027%=      5-min Rain = 0
KHA2 242307Z 19006KT 26/06 A2971 RMK A01 T02570055  RH  027%=      5-min Rain = 0
KHA2 242308Z 20007KT 26/05 A2971 RMK A01 T02580052  RH  027%=      5-min Rain = 0
KHA2 242309Z 20006KT 26/06 A2971 RMK A01 T02590055  RH  027%=      5-min Rain = 0
KHA2 242310Z 20006KT 26/06 A2971 RMK A01 T02590057  RH  027%=      5-min Rain = 0
KHA2 242311Z 21007KT 26/06 A2971 RMK A01 T02580057  RH  027%=      5-min Rain = 0
KHA2 242312Z 21007KT 26/06 A2971 RMK A01 T02570057  RH  028%=      5-min Rain = 0
KHA2 242313Z 22006KT 26/06 A2971 RMK A01 T02570058  RH  028%=      5-min Rain = 0
KHA2 242314Z 21008KT 26/06 A2971 RMK A01 T02560061  RH  029%=      5-min Rain = 0
KHA2 242315Z 21008KT 26/06 A2971 RMK A01 T02560061  RH  029%=      5-min Rain = 0
KHA2 242316Z 21007KT 26/06 A2971 RMK A01 T02550061  RH  029%=      5-min Rain = 0
KHA2 242317Z 21007KT 25/06 A2971 RMK A01 T02540063  RH  029%=      5-min Rain = 0
KHA2 242318Z 20008KT 25/06 A2971 RMK A01 T02530063  RH  030%=      5-min Rain = 0
KHA2 242319Z 20007KT 25/06 A2971 RMK A01 T02530063  RH  030%=      5-min Rain = 0
KHA2 242320Z 19008KT 25/07 A2971 RMK A01 T02530065  RH  030%=      5-min Rain = 0
KHA2 242321Z 19008KT 25/06 A2971 RMK A01 T02520064  RH  030%=      5-min Rain = 0
KHA2 242322Z 19007KT 25/06 A2972 RMK A01 T02530063  RH  030%=      5-min Rain = 0
KHA2 242323Z 19008KT 25/06 A2972 RMK A01 T02530064  RH  030%=      5-min Rain = 0
KHA2 242324Z 19009KT 25/07 A2972 RMK A01 T02530066  RH  030%=      5-min Rain = 0
KHA2 242325Z 18013G18KT 25/07 A2972 RMK A01 T02530069  RH  031%=      5-min Rain = 0
KHA2 242326Z 18014KT 25/06 A2972 RMK A01 T02520058  RH  029%=      5-min Rain = 0
KHA2 242327Z 18013KT 25/05 A2972 RMK A01 T02530051  RH  027%=      5-min Rain = 0
KHA2 242328Z 18013KT 25/05 A2972 RMK A01 T02530050  RH  027%=      5-min Rain = 0
KHA2 242329Z 17012KT 25/05 A2973 RMK A01 T02530051  RH  027%=      5-min Rain = 0
KHA2 242330Z 17014KT 25/04 A2973 RMK A01 T02530043  RH  026%=      5-min Rain = 0
KHA2 242331Z 18014KT 25/04 A2973 RMK A01 T02530041  RH  025%=      5-min Rain = 0
KHA2 242332Z 18011KT 25/04 A2973 RMK A01 T02530042  RH  026%=      5-min Rain = 0
KHA2 242333Z 17013KT 25/05 A2972 RMK A01 T02520045  RH  026%=      5-min Rain = 0
KHA2 242334Z 17013KT 25/05 A2972 RMK A01 T02520045  RH  026%=      5-min Rain = 0
KHA2 242335Z 17011KT 25/05 A2972 RMK A01 T02510046  RH  027%=      5-min Rain = 0
KHA2 242336Z 17011KT 25/05 A2972 RMK A01 T02500048  RH  027%=      5-min Rain = 0
KHA2 242337Z 17013KT 25/05 A2972 RMK A01 T02500048  RH  027%=      5-min Rain = 0
KHA2 242338Z 17012KT 25/05 A2972 RMK A01 T02490049  RH  027%=      5-min Rain = 0
KHA2 242339Z 17012KT 25/05 A2972 RMK A01 T02490049  RH  028%=      5-min Rain = 0
KHA2 242340Z 16011KT 25/05 A2972 RMK A01 T02480050  RH  028%=      5-min Rain = 0
KHA2 242341Z 16012KT 25/05 A2972 RMK A01 T02480050  RH  028%=      5-min Rain = 0
KHA2 242342Z 16013KT 25/05 A2972 RMK A01 T02480049  RH  028%=      5-min Rain = 0
KHA2 242343Z 16013KT 25/05 A2972 RMK A01 T02490045  RH  027%=      5-min Rain = 0
KHA2 242344Z 17013KT 25/05 A2972 RMK A01 T02500047  RH  027%=      5-min Rain = 0
KHA2 242345Z 16012KT 25/05 A2971 RMK A01 T02500050  RH  028%=      5-min Rain = 0
KHA2 242346Z 16012KT 25/05 A2971 RMK A01 T02490051  RH  028%=      5-min Rain = 0
KHA2 242347Z 16011KT 25/05 A2971 RMK A01 T02490050  RH  028%=      5-min Rain = 0
KHA2 242348Z 16011KT 25/05 A2971 RMK A01 T02490048  RH  027%=      5-min Rain = 0
KHA2 242349Z 16011KT 25/05 A2971 RMK A01 T02500046  RH  027%=      5-min Rain = 0
KHA2 242350Z 16011KT 25/04 A2971 RMK A01 T02510043  RH  026%=      5-min Rain = 0
KHA2 242351Z 15011KT 25/04 A297 RMK A01 T02520043  RH  026%=      5-min Rain = 0
KHA2 242352Z 15011KT 25/04 A297 RMK A01 T02520042  RH  026%=      5-min Rain = 0
KHA2 242353Z 16010KT 25/04 A297 RMK A01 T02520043  RH  026%=      5-min Rain = 0
KHA2 242354Z 15011KT 25/04 A297 RMK A01 T02520042  RH  026%=      5-min Rain = 0
KHA2 242355Z 15011KT 25/04 A297 RMK A01 T02520043  RH  026%=      5-min Rain = 0
KHA2 242356Z 15010KT 25/04 A297 RMK A01 T02520043  RH  026%=      5-min Rain = 0
KHA2 242357Z 15010KT 25/04 A2969 RMK A01 T02530043  RH  026%=      5-min Rain = 0
KHA2 242358Z 16009KT 25/04 A2969 RMK A01 T02530042  RH  026%=      5-min Rain = 0
KHA2 242359Z 16008KT 25/04 A2969 RMK A01 T02530044  RH  026%=      5-min Rain = 0
KHA2 250000Z 16009KT 25/05 A2969 RMK A01 T02530045  RH  026%=      5-min Rain = 0
KHA2 250001Z 16008KT 25/05 A2969 RMK A01 T02530045  RH  026%=      5-min Rain = 0
KHA2 250002Z 16008KT 25/05 A2969 RMK A01 T02520046  RH  027%=      5-min Rain = 0
KHA2 250003Z 16007KT 25/05 A2969 RMK A01 T02520047  RH  027%=      5-min Rain = 0
KHA2 250004Z 15007KT 25/05 A2969 RMK A01 T02520049  RH  027%=      5-min Rain = 0
KHA2 250005Z 16008KT 25/05 A2969 RMK A01 T02510050  RH  027%=      5-min Rain = 0
KHA2 250006Z 17007KT 25/05 A2969 RMK A01 T02500052  RH  028%=      5-min Rain = 0
KHA2 250007Z 17006KT 25/05 A2969 RMK A01 T02500054  RH  028%=      5-min Rain = 0
KHA2 250008Z 17006KT 25/06 A2969 RMK A01 T02490055  RH  029%=      5-min Rain = 0
KHA2 250009Z 16007KT 25/06 A2969 RMK A01 T02480056  RH  029%=      5-min Rain = 0
KHA2 250010Z 16007KT 25/06 A2969 RMK A01 T02480057  RH  029%=      5-min Rain = 0
KHA2 250011Z 16007KT 25/06 A2969 RMK A01 T02470056  RH  029%=      5-min Rain = 0
KHA2 250012Z 16008KT 25/05 A2969 RMK A01 T02470054  RH  029%=      5-min Rain = 0
KHA2 250013Z 17009KT 25/05 A2969 RMK A01 T02470052  RH  028%=      5-min Rain = 0
KHA2 250014Z 17008KT 25/05 A2969 RMK A01 T02480051  RH  028%=      5-min Rain = 0
KHA2 250015Z 17008KT 25/05 A2969 RMK A01 T02480050  RH  028%=      5-min Rain = 0
KHA2 250016Z 17008KT 25/05 A2969 RMK A01 T02480050  RH  028%=      5-min Rain = 0
KHA2 250017Z 18007KT 25/05 A2969 RMK A01 T02480049  RH  028%=      5-min Rain = 0
KHA2 250018Z 17007KT 25/05 A2969 RMK A01 T02480048  RH  028%=      5-min Rain = 0
KHA2 250019Z 17008KT 25/05 A2969 RMK A01 T02480048  RH  028%=      5-min Rain = 0
KHA2 250020Z 16008KT 25/05 A2969 RMK A01 T02480046  RH  027%=      5-min Rain = 0
KHA2 250021Z 17007KT 25/05 A2969 RMK A01 T02490046  RH  027%=      5-min Rain = 0
KHA2 250022Z 17007KT 25/05 A2969 RMK A01 T02490046  RH  027%=      5-min Rain = 0
KHA2 250023Z 17007KT 25/05 A2969 RMK A01 T02490047  RH  027%=      5-min Rain = 0
KHA2 250024Z 16007KT 25/05 A2969 RMK A01 T02490047  RH  027%=      5-min Rain = 0
KHA2 250025Z 16007KT 25/05 A2969 RMK A01 T02490046  RH  027%=      5-min Rain = 0
KHA2 250026Z 16007KT 25/05 A2969 RMK A01 T02490046  RH  027%=      5-min Rain = 0
KHA2 250027Z 16007KT 25/05 A2969 RMK A01 T02490046  RH  027%=      5-min Rain = 0
KHA2 250028Z 16006KT 25/05 A2968 RMK A01 T02490046  RH  027%=      5-min Rain = 0
KHA2 250029Z 16006KT 25/05 A2968 RMK A01 T02490045  RH  027%=      5-min Rain = 0
KHA2 250030Z 16007KT 25/04 A2968 RMK A01 T02490044  RH  027%=      5-min Rain = 0
KHA2 250031Z 16007KT 25/05 A2968 RMK A01 T02490045  RH  027%=      5-min Rain = 0
KHA2 250032Z 16007KT 25/04 A2968 RMK A01 T02480044  RH  027%=      5-min Rain = 0
KHA2 250033Z 16007KT 25/04 A2968 RMK A01 T02480044  RH  027%=      5-min Rain = 0
KHA2 250034Z 15008KT 25/04 A2968 RMK A01 T02470043  RH  027%=      5-min Rain = 0
KHA2 250035Z 15007KT 25/04 A2968 RMK A01 T02470042  RH  026%=      5-min Rain = 0
KHA2 250036Z 15007KT 25/04 A2968 RMK A01 T02470042  RH  026%=      5-min Rain = 0
KHA2 250037Z 15007KT 25/04 A2969 RMK A01 T02470042  RH  027%=      5-min Rain = 0
KHA2 250038Z 15007KT 25/04 A2969 RMK A01 T02470043  RH  027%=      5-min Rain = 0
KHA2 250039Z 15007KT 25/04 A2969 RMK A01 T02460043  RH  027%=      5-min Rain = 0
KHA2 250040Z 15006KT 25/04 A2969 RMK A01 T02450044  RH  027%=      5-min Rain = 0
KHA2 250041Z 15006KT 24/04 A2969 RMK A01 T02440044  RH  027%=      5-min Rain = 0
KHA2 250042Z 14006KT 24/05 A2969 RMK A01 T02440045  RH  028%=      5-min Rain = 0
KHA2 250043Z 13006KT 24/05 A2969 RMK A01 T02420046  RH  028%=      5-min Rain = 0
KHA2 250044Z 13006KT 24/05 A2969 RMK A01 T02410048  RH  029%=      5-min Rain = 0
KHA2 250045Z 13006KT 24/05 A2969 RMK A01 T02400049  RH  029%=      5-min Rain = 0
KHA2 250046Z 13006KT 24/05 A2969 RMK A01 T02390049  RH  029%=      5-min Rain = 0
KHA2 250047Z 14006KT 24/05 A2969 RMK A01 T02380050  RH  030%=      5-min Rain = 0
KHA2 250048Z 14006KT 24/05 A297 RMK A01 T02370050  RH  030%=      5-min Rain = 0
KHA2 250049Z 14006KT 24/05 A297 RMK A01 T02360050  RH  030%=      5-min Rain = 0
KHA2 250050Z 14006KT 24/05 A297 RMK A01 T02350051  RH  030%=      5-min Rain = 0
KHA2 250051Z 14005KT 24/05 A297 RMK A01 T02350052  RH  031%=      5-min Rain = 0
KHA2 250052Z 14005KT 23/05 A297 RMK A01 T02340052  RH  031%=      5-min Rain = 0
KHA2 250053Z 13005KT 23/05 A297 RMK A01 T02330052  RH  031%=      5-min Rain = 0
KHA2 250054Z 14005KT 23/05 A297 RMK A01 T02330053  RH  031%=      5-min Rain = 0
KHA2 250055Z 14005KT 23/05 A2969 RMK A01 T02330053  RH  031%=      5-min Rain = 0
KHA2 250056Z 15005KT 23/05 A2969 RMK A01 T02330053  RH  031%=      5-min Rain = 0
KHA2 250057Z 15005KT 23/05 A2969 RMK A01 T02330052  RH  031%=      5-min Rain = 0
KHA2 250058Z 15005KT 23/05 A2969 RMK A01 T02330052  RH  031%=      5-min Rain = 0
KHA2 250059Z 15005KT 23/05 A2969 RMK A01 T02340052  RH  031%=      5-min Rain = 0
KHA2 250100Z 15005KT 23/05 A2969 RMK A01 T02340053  RH  031%=      5-min Rain = 0
KHA2 250101Z 15005KT 23/05 A2968 RMK A01 T02330054  RH  031%=      5-min Rain = 0
KHA2 250102Z 15005KT 23/05 A2968 RMK A01 T02320054  RH  031%=      5-min Rain = 0
KHA2 250103Z 15004KT 23/05 A2968 RMK A01 T02320054  RH  032%=      5-min Rain = 0
KHA2 250104Z 15003KT 23/06 A2968 RMK A01 T02320055  RH  032%=      5-min Rain = 0
KHA2 250105Z 15003KT 23/06 A2968 RMK A01 T02310055  RH  032%=      5-min Rain = 0
KHA2 250106Z 15003KT 23/06 A2968 RMK A01 T02310055  RH  032%=      5-min Rain = 0
KHA2 250107Z 15003KT 23/06 A2968 RMK A01 T02300055  RH  032%=      5-min Rain = 0
KHA2 250108Z 15004KT 23/06 A2968 RMK A01 T02300056  RH  032%=      5-min Rain = 0
KHA2 250109Z 14004KT 23/06 A2968 RMK A01 T02290056  RH  033%=      5-min Rain = 0
KHA2 250110Z 12004KT 23/06 A2968 RMK A01 T02300057  RH  033%=      5-min Rain = 0
KHA2 250111Z 10004KT 23/06 A2968 RMK A01 T02310060  RH  033%=      5-min Rain = 0
KHA2 250112Z 10005KT 23/06 A2968 RMK A01 T02310064  RH  034%=      5-min Rain = 0
KHA2 250113Z 10006KT 23/07 A2968 RMK A01 T02300072  RH  036%=      5-min Rain = 0
KHA2 250114Z 11007KT 23/08 A2969 RMK A01 T02280079  RH  038%=      5-min Rain = 0
KHA2 250115Z 11010KT 23/08 A2969 RMK A01 T02260078  RH  038%=      5-min Rain = 0
KHA2 250116Z 13006KT 23/06 A2969 RMK A01 T02280064  RH  035%=      5-min Rain = 0
KHA2 250117Z 12008KT 23/06 A2969 RMK A01 T02280062  RH  034%=      5-min Rain = 0
KHA2 250118Z 12009KT 23/06 A2969 RMK A01 T02270057  RH  033%=      5-min Rain = 0
KHA2 250119Z 12012KT 23/05 A2968 RMK A01 T02300053  RH  032%=      5-min Rain = 0
KHA2 250120Z 12012KT 23/05 A2968 RMK A01 T02340051  RH  031%=      5-min Rain = 0
KHA2 250121Z 11009KT 24/05 A2968 RMK A01 T02380050  RH  029%=      5-min Rain = 0
KHA2 250122Z 12010KT 24/05 A2968 RMK A01 T02400049  RH  029%=      5-min Rain = 0
KHA2 250123Z 11010KT 24/05 A2968 RMK A01 T02420047  RH  028%=      5-min Rain = 0
KHA2 250124Z 12009KT 24/05 A2968 RMK A01 T02420050  RH  029%=      5-min Rain = 0
KHA2 250125Z 13009KT 24/05 A2968 RMK A01 T02410051  RH  029%=      5-min Rain = 0
KHA2 250126Z 13008KT 24/05 A2968 RMK A01 T02390052  RH  030%=      5-min Rain = 0
KHA2 250127Z 14007KT 24/05 A2968 RMK A01 T02380052  RH  030%=      5-min Rain = 0
KHA2 250128Z 14007KT 24/05 A2968 RMK A01 T02370052  RH  030%=      5-min Rain = 0
KHA2 250129Z 14007KT 24/05 A2968 RMK A01 T02370051  RH  030%=      5-min Rain = 0
KHA2 250130Z 12006KT 24/05 A2968 RMK A01 T02370052  RH  030%=      5-min Rain = 0
KHA2 250131Z 10006KT 24/06 A2968 RMK A01 T02360057  RH  032%=      5-min Rain = 0
KHA2 250132Z 09008KT 23/06 A2968 RMK A01 T02340061  RH  033%=      5-min Rain = 0
KHA2 250133Z 10008KT 23/05 A2968 RMK A01 T02340054  RH  031%=      5-min Rain = 0
KHA2 250134Z 11009KT 24/06 A2968 RMK A01 T02360055  RH  031%=      5-min Rain = 0
KHA2 250135Z 11009KT 24/05 A2968 RMK A01 T02370050  RH  030%=      5-min Rain = 0
KHA2 250136Z 10008KT 24/05 A2968 RMK A01 T02380050  RH  029%=      5-min Rain = 0
KHA2 250137Z 09008KT 24/06 A2968 RMK A01 T02390055  RH  031%=      5-min Rain = 0
KHA2 250138Z 09007KT 24/06 A2968 RMK A01 T02390057  RH  031%=      5-min Rain = 0
KHA2 250139Z 09008KT 24/06 A2968 RMK A01 T02390062  RH  032%=      5-min Rain = 0
KHA2 250140Z 09008KT 24/06 A2968 RMK A01 T02380060  RH  032%=      5-min Rain = 0
KHA2 250141Z 09008KT 24/06 A2968 RMK A01 T02380058  RH  031%=      5-min Rain = 0
KHA2 250142Z 09010KT 24/06 A2968 RMK A01 T02380055  RH  031%=      5-min Rain = 0
KHA2 250143Z 09010KT 24/06 A2968 RMK A01 T02390056  RH  031%=      5-min Rain = 0
KHA2 250144Z 10010KT 24/06 A2968 RMK A01 T02390059  RH  031%=      5-min Rain = 0
KHA2 250145Z 09009KT 24/06 A2968 RMK A01 T02380058  RH  031%=      5-min Rain = 0
KHA2 250146Z 08008KT 24/06 A2968 RMK A01 T02380058  RH  031%=      5-min Rain = 0
KHA2 250147Z 08008KT 24/06 A2968 RMK A01 T02370059  RH  032%=      5-min Rain = 0
KHA2 250148Z 09008KT 24/06 A2968 RMK A01 T02370055  RH  031%=      5-min Rain = 0
KHA2 250149Z 09007KT 24/05 A2968 RMK A01 T02370053  RH  030%=      5-min Rain = 0
KHA2 250150Z 08006KT 24/05 A2968 RMK A01 T02380054  RH  030%=      5-min Rain = 0
KHA2 250151Z 09007KT 24/05 A2968 RMK A01 T02390054  RH  030%=      5-min Rain = 0
KHA2 250152Z 08007KT 24/06 A2968 RMK A01 T02390056  RH  031%=      5-min Rain = 0
KHA2 250153Z 07007KT 24/06 A2968 RMK A01 T02380058  RH  031%=      5-min Rain = 0
KHA2 250154Z 07008KT 24/06 A2968 RMK A01 T02370057  RH  031%=      5-min Rain = 0
KHA2 250155Z 08008KT 24/06 A2968 RMK A01 T02360057  RH  031%=      5-min Rain = 0
KHA2 250156Z 08007KT 24/06 A2968 RMK A01 T02350059  RH  032%=      5-min Rain = 0
KHA2 250157Z 08007KT 23/06 A2969 RMK A01 T02340060  RH  033%=      5-min Rain = 0
KHA2 250158Z 08007KT 23/06 A2969 RMK A01 T02320063  RH  034%=      5-min Rain = 0
KHA2 250159Z 08008KT 23/07 A2969 RMK A01 T02310065  RH  034%=      5-min Rain = 0
KHA2 250200Z 08007KT 23/06 A2969 RMK A01 T02300063  RH  034%=      5-min Rain = 0
KHA2 250201Z 08006KT 23/06 A2969 RMK A01 T02290063  RH  034%=      5-min Rain = 0
KHA2 250202Z 08006KT 23/07 A2969 RMK A01 T02290065  RH  035%=      5-min Rain = 0
KHA2 250203Z 08005KT 23/06 A2969 RMK A01 T02280064  RH  035%=      5-min Rain = 0
KHA2 250204Z 07005KT 23/06 A2969 RMK A01 T02270063  RH  035%=      5-min Rain = 0
KHA2 250205Z 07004KT 23/06 A2969 RMK A01 T02260063  RH  035%=      5-min Rain = 0
KHA2 250206Z 06004KT 23/06 A2969 RMK A01 T02260061  RH  035%=      5-min Rain = 0
KHA2 250207Z 06004KT 23/06 A2969 RMK A01 T02250064  RH  035%=      5-min Rain = 0
KHA2 250208Z 05004KT 22/06 A2969 RMK A01 T02240063  RH  035%=      5-min Rain = 0
KHA2 250209Z 05004KT 22/06 A2969 RMK A01 T02240060  RH  035%=      5-min Rain = 0
KHA2 250210Z 05004KT 22/06 A2969 RMK A01 T02230059  RH  034%=      5-min Rain = 0
KHA2 250211Z 05004KT 22/06 A2969 RMK A01 T02230058  RH  034%=      5-min Rain = 0
KHA2 250212Z 04005KT 22/06 A2969 RMK A01 T02230058  RH  034%=      5-min Rain = 0
KHA2 250213Z 04005KT 22/06 A2969 RMK A01 T02220059  RH  035%=      5-min Rain = 0
KHA2 250214Z 05006KT 22/06 A2969 RMK A01 T02210060  RH  035%=      5-min Rain = 0
KHA2 250215Z 05006KT 22/06 A2969 RMK A01 T02190061  RH  036%=      5-min Rain = 0
KHA2 250216Z 04007KT 22/06 A2969 RMK A01 T02180060  RH  036%=      5-min Rain = 0
KHA2 250217Z 05007KT 22/06 A2969 RMK A01 T02170059  RH  036%=      5-min Rain = 0
KHA2 250218Z 05007KT 22/06 A2969 RMK A01 T02180058  RH  035%=      5-min Rain = 0
KHA2 250219Z 05008KT 22/06 A2969 RMK A01 T02180058  RH  035%=      5-min Rain = 0
KHA2 250220Z 05009KT 22/06 A2969 RMK A01 T02180058  RH  035%=      5-min Rain = 0
KHA2 250221Z 05009KT 22/06 A2969 RMK A01 T02180058  RH  035%=      5-min Rain = 0
KHA2 250222Z 06009KT 22/06 A2969 RMK A01 T02170057  RH  035%=      5-min Rain = 0
KHA2 250223Z 06008KT 22/06 A2969 RMK A01 T02160055  RH  035%=      5-min Rain = 0
KHA2 250224Z 07008KT 22/05 A297 RMK A01 T02160054  RH  035%=      5-min Rain = 0
KHA2 250225Z 07009KT 22/06 A297 RMK A01 T02160056  RH  035%=      5-min Rain = 0
KHA2 250226Z 07009KT 22/06 A297 RMK A01 T02160059  RH  036%=      5-min Rain = 0
KHA2 250227Z 07010KT 22/06 A297 RMK A01 T02150062  RH  037%=      5-min Rain = 0
KHA2 250228Z 07011KT 21/06 A297 RMK A01 T02140064  RH  038%=      5-min Rain = 0
KHA2 250229Z 07010KT 21/07 A2971 RMK A01 T02140065  RH  038%=      5-min Rain = 0
KHA2 250230Z 07010KT 21/07 A2971 RMK A01 T02140067  RH  038%=      5-min Rain = 0
KHA2 250231Z 07011KT 21/07 A2971 RMK A01 T02140067  RH  038%=      5-min Rain = 0
KHA2 250232Z 08011KT 21/07 A2971 RMK A01 T02140067  RH  038%=      5-min Rain = 0
KHA2 250233Z 08010KT 21/07 A2972 RMK A01 T02140066  RH  038%=      5-min Rain = 0
KHA2 250234Z 08011KT 21/07 A2972 RMK A01 T02140068  RH  039%=      5-min Rain = 0
KHA2 250235Z 08010KT 21/07 A2972 RMK A01 T02130070  RH  039%=      5-min Rain = 0
KHA2 250236Z 08010KT 21/07 A2972 RMK A01 T02120072  RH  040%=      5-min Rain = 0
KHA2 250237Z 08010KT 21/07 A2972 RMK A01 T02110074  RH  041%=      5-min Rain = 0
KHA2 250238Z 08010KT 21/07 A2972 RMK A01 T02110073  RH  041%=      5-min Rain = 0
KHA2 250239Z 08010KT 21/07 A2972 RMK A01 T02100072  RH  041%=      5-min Rain = 0
KHA2 250240Z 08011KT 21/07 A2972 RMK A01 T02100073  RH  041%=      5-min Rain = 0
KHA2 250241Z 08012KT 21/07 A2972 RMK A01 T02100072  RH  041%=      5-min Rain = 0
KHA2 250242Z 08012KT 21/07 A2972 RMK A01 T02100070  RH  040%=      5-min Rain = 0
KHA2 250243Z 08012KT 21/07 A2972 RMK A01 T02110071  RH  040%=      5-min Rain = 0
KHA2 250244Z 08011KT 21/07 A2972 RMK A01 T02110072  RH  040%=      5-min Rain = 0
KHA2 250245Z 08012KT 21/07 A2972 RMK A01 T02110072  RH  040%=      5-min Rain = 0
KHA2 250246Z 09010KT 21/07 A2972 RMK A01 T02110072  RH  040%=      5-min Rain = 0
KHA2 250247Z 09009KT 21/07 A2972 RMK A01 T02110072  RH  041%=      5-min Rain = 0
KHA2 250248Z 09009KT 21/07 A2972 RMK A01 T02110072  RH  041%=      5-min Rain = 0
KHA2 250249Z 09008KT 21/07 A2972 RMK A01 T02110070  RH  040%=      5-min Rain = 0
KHA2 250250Z 09006KT 21/07 A2972 RMK A01 T02100070  RH  040%=      5-min Rain = 0
KHA2 250251Z 08007KT 21/07 A2972 RMK A01 T02100071  RH  041%=      5-min Rain = 0
KHA2 250252Z 08008KT 21/07 A2972 RMK A01 T02100070  RH  040%=      5-min Rain = 0
KHA2 250253Z 08009KT 21/07 A2972 RMK A01 T02090071  RH  041%=      5-min Rain = 0
KHA2 250254Z 08008KT 21/07 A2972 RMK A01 T02090071  RH  041%=      5-min Rain = 0
KHA2 250255Z 09012KT 21/07 A2972 RMK A01 T02090070  RH  040%=      5-min Rain = 0
KHA2 250256Z 09011KT 21/07 A2972 RMK A01 T02100070  RH  040%=      5-min Rain = 0
KHA2 250257Z 09010KT 21/07 A2972 RMK A01 T02110071  RH  040%=      5-min Rain = 0
KHA2 250258Z 08010KT 21/07 A2972 RMK A01 T02100073  RH  041%=      5-min Rain = 0
KHA2 250259Z 08010KT 21/07 A2972 RMK A01 T02100072  RH  041%=      5-min Rain = 0
KHA2 250300Z 09010KT 21/07 A2972 RMK A01 T02090072  RH  041%=      5-min Rain = 0
KHA2 250301Z 08010KT 21/07 A2972 RMK A01 T02100072  RH  041%=      5-min Rain = 0
KHA2 250302Z 09010KT 21/07 A2972 RMK A01 T02090073  RH  041%=      5-min Rain = 0
KHA2 250303Z 09010KT 21/07 A2972 RMK A01 T02090073  RH  041%=      5-min Rain = 0
KHA2 250304Z 09010KT 21/07 A2972 RMK A01 T02080072  RH  041%=      5-min Rain = 0
KHA2 250305Z 09010KT 21/07 A2972 RMK A01 T02090073  RH  041%=      5-min Rain = 0
KHA2 250306Z 09009KT 21/07 A2972 RMK A01 T02080072  RH  041%=      5-min Rain = 0
KHA2 250307Z 09008KT 21/07 A2972 RMK A01 T02080072  RH  041%=      5-min Rain = 0
KHA2 250308Z 09008KT 21/07 A2972 RMK A01 T02070073  RH  042%=      5-min Rain = 0
KHA2 250309Z 08008KT 21/07 A2972 RMK A01 T02060074  RH  042%=      5-min Rain = 0
KHA2 250310Z 08008KT 21/07 A2972 RMK A01 T02050073  RH  042%=      5-min Rain = 0
KHA2 250311Z 08007KT 21/07 A2972 RMK A01 T02050073  RH  042%=      5-min Rain = 0
KHA2 250312Z 08007KT 21/07 A2972 RMK A01 T02050072  RH  042%=      5-min Rain = 0
KHA2 250313Z 08006KT 21/07 A2972 RMK A01 T02050072  RH  042%=      5-min Rain = 0
KHA2 250314Z 09007KT 20/07 A2972 RMK A01 T02040074  RH  043%=      5-min Rain = 0
KHA2 250315Z 09007KT 20/08 A2972 RMK A01 T02030075  RH  044%=      5-min Rain = 0
KHA2 250316Z 09006KT 20/08 A2972 RMK A01 T02030075  RH  044%=      5-min Rain = 0
KHA2 250317Z 08007KT 20/08 A2972 RMK A01 T02030078  RH  044%=      5-min Rain = 0
KHA2 250318Z 08008KT 20/08 A2972 RMK A01 T02020077  RH  044%=      5-min Rain = 0
KHA2 250319Z 08009KT 20/08 A2972 RMK A01 T02010079  RH  045%=      5-min Rain = 0
KHA2 250320Z 07010KT 20/08 A2972 RMK A01 T02010080  RH  046%=      5-min Rain = 0
KHA2 250321Z 07009KT 20/08 A2972 RMK A01 T02010081  RH  046%=      5-min Rain = 0
KHA2 250322Z 07010KT 20/08 A2972 RMK A01 T02000081  RH  046%=      5-min Rain = 0
KHA2 250323Z 07010KT 20/08 A2972 RMK A01 T02000081  RH  046%=      5-min Rain = 0
KHA2 250324Z 07010KT 20/08 A2972 RMK A01 T01990081  RH  046%=      5-min Rain = 0
KHA2 250325Z 07010KT 20/08 A2972 RMK A01 T01990081  RH  047%=      5-min Rain = 0
KHA2 250326Z 07009KT 20/08 A2972 RMK A01 T01980080  RH  046%=      5-min Rain = 0
KHA2 250327Z 07010KT 20/08 A2972 RMK A01 T01980081  RH  047%=      5-min Rain = 0
KHA2 250328Z 07010KT 20/08 A2972 RMK A01 T01980082  RH  047%=      5-min Rain = 0
KHA2 250329Z 08009KT 20/08 A2972 RMK A01 T01970084  RH  048%=      5-min Rain = 0
KHA2 250330Z 08010KT 20/09 A2972 RMK A01 T01970085  RH  048%=      5-min Rain = 0
KHA2 250331Z 08010KT 20/09 A2972 RMK A01 T01970086  RH  049%=      5-min Rain = 0
KHA2 250332Z 08011KT 20/09 A2972 RMK A01 T01970089  RH  050%=      5-min Rain = 0
KHA2 250333Z 09011KT 20/09 A2973 RMK A01 T01960088  RH  050%=      5-min Rain = 0
KHA2 250334Z 08011KT 20/09 A2973 RMK A01 T01960089  RH  050%=      5-min Rain = 0
KHA2 250335Z 08011KT 20/09 A2972 RMK A01 T01960088  RH  050%=      5-min Rain = 0
KHA2 250336Z 08012KT 20/09 A2972 RMK A01 T01960089  RH  050%=      5-min Rain = 0
KHA2 250337Z 07012KT 20/09 A2972 RMK A01 T01950089  RH  050%=      5-min Rain = 0
KHA2 250338Z 07012KT 20/09 A2972 RMK A01 T01950090  RH  051%=      5-min Rain = 0
KHA2 250339Z 07011KT 20/09 A2972 RMK A01 T01950090  RH  051%=      5-min Rain = 0
KHA2 250340Z 07010KT 19/09 A2972 RMK A01 T01940089  RH  050%=      5-min Rain = 0
KHA2 250341Z 07010KT 19/09 A2972 RMK A01 T01940088  RH  050%=      5-min Rain = 0
KHA2 250342Z 07012KT 19/09 A2972 RMK A01 T01930088  RH  051%=      5-min Rain = 0
KHA2 250343Z 07012KT 19/09 A2972 RMK A01 T01920091  RH  052%=      5-min Rain = 0
KHA2 250344Z 07013KT 19/09 A2972 RMK A01 T01920091  RH  052%=      5-min Rain = 0
KHA2 250345Z 07013KT 19/09 A2972 RMK A01 T01920093  RH  053%=      5-min Rain = 0
KHA2 250346Z 07012KT 19/09 A2972 RMK A01 T01920094  RH  053%=      5-min Rain = 0
KHA2 250347Z 07010KT 19/09 A2972 RMK A01 T01910093  RH  053%=      5-min Rain = 0
KHA2 250348Z 07011KT 19/09 A2972 RMK A01 T01900094  RH  054%=      5-min Rain = 0
KHA2 250349Z 07009KT 19/10 A2973 RMK A01 T01900096  RH  054%=      5-min Rain = 0
KHA2 250350Z 07009KT 19/10 A2973 RMK A01 T01890096  RH  055%=      5-min Rain = 0
KHA2 250351Z 08008KT 19/10 A2973 RMK A01 T01890097  RH  055%=      5-min Rain = 0
KHA2 250352Z 07009KT 19/10 A2973 RMK A01 T01880098  RH  056%=      5-min Rain = 0
KHA2 250353Z 08010KT 19/10 A2973 RMK A01 T01870100  RH  057%=      5-min Rain = 0
KHA2 250354Z 08009KT 19/10 A2973 RMK A01 T01870101  RH  057%=      5-min Rain = 0
KHA2 250355Z 08009KT 19/10 A2973 RMK A01 T01870102  RH  058%=      5-min Rain = 0
KHA2 250356Z 08009KT 19/10 A2973 RMK A01 T01860102  RH  058%=      5-min Rain = 0
KHA2 250357Z 08009KT 19/10 A2972 RMK A01 T01860103  RH  058%=      5-min Rain = 0
KHA2 250358Z 08008KT 19/10 A2972 RMK A01 T01860103  RH  059%=      5-min Rain = 0
KHA2 250359Z 08007KT 19/10 A2972 RMK A01 T01850104  RH  059%=      5-min Rain = 0
KHA2 250400Z 08008KT 19/10 A2972 RMK A01 T01850104  RH  059%=      5-min Rain = 0
KHA2 250401Z 08008KT 18/10 A2972 RMK A01 T01840104  RH  060%=      5-min Rain = 0
KHA2 250402Z 08008KT 18/11 A2972 RMK A01 T01840106  RH  060%=      5-min Rain = 0
KHA2 250403Z 08009KT 18/11 A2972 RMK A01 T01830106  RH  061%=      5-min Rain = 0
KHA2 250404Z 08008KT 18/11 A2972 RMK A01 T01840107  RH  061%=      5-min Rain = 0
KHA2 250405Z 08009KT 18/11 A2973 RMK A01 T01830106  RH  061%=      5-min Rain = 0
KHA2 250406Z 08009KT 18/11 A2973 RMK A01 T01830107  RH  061%=      5-min Rain = 0
KHA2 250407Z 08009KT 18/11 A2973 RMK A01 T01830107  RH  061%=      5-min Rain = 0
KHA2 250408Z 08009KT 18/11 A2973 RMK A01 T01830107  RH  061%=      5-min Rain = 0
KHA2 250409Z 08010KT 18/11 A2973 RMK A01 T01830107  RH  061%=      5-min Rain = 0
KHA2 250410Z 08010KT 18/11 A2973 RMK A01 T01820107  RH  061%=      5-min Rain = 0
KHA2 250411Z 08010KT 18/11 A2973 RMK A01 T01820107  RH  061%=      5-min Rain = 0
KHA2 250412Z 08010KT 18/11 A2974 RMK A01 T01830106  RH  061%=      5-min Rain = 0
KHA2 250413Z 08010KT 18/11 A2974 RMK A01 T01830107  RH  061%=      5-min Rain = 0
KHA2 250414Z 08011KT 18/11 A2974 RMK A01 T01820106  RH  061%=      5-min Rain = 0
KHA2 250415Z 08012KT 18/11 A2974 RMK A01 T01820105  RH  061%=      5-min Rain = 0
KHA2 250416Z 08012KT 18/10 A2974 RMK A01 T01820104  RH  060%=      5-min Rain = 0
KHA2 250417Z 08012KT 18/11 A2974 RMK A01 T01830105  RH  060%=      5-min Rain = 0
KHA2 250418Z 08011KT 18/10 A2974 RMK A01 T01820103  RH  060%=      5-min Rain = 0
KHA2 250419Z 08011KT 18/10 A2974 RMK A01 T01830104  RH  060%=      5-min Rain = 0
KHA2 250420Z 08011KT 18/10 A2974 RMK A01 T01830104  RH  060%=      5-min Rain = 0
KHA2 250421Z 08010KT 18/10 A2974 RMK A01 T01830103  RH  059%=      5-min Rain = 0
KHA2 250422Z 09010KT 18/10 A2974 RMK A01 T01830103  RH  060%=      5-min Rain = 0
KHA2 250423Z 09010KT 18/10 A2974 RMK A01 T01830103  RH  059%=      5-min Rain = 0
KHA2 250424Z 10009KT 18/10 A2974 RMK A01 T01830102  RH  059%=      5-min Rain = 0
KHA2 250425Z 10011KT 18/10 A2975 RMK A01 T01830100  RH  058%=      5-min Rain = 0
KHA2 250426Z 10010KT 18/10 A2975 RMK A01 T01830097  RH  057%=      5-min Rain = 0
KHA2 250427Z 10009KT 18/10 A2975 RMK A01 T01830097  RH  057%=      5-min Rain = 0
KHA2 250428Z 10009KT 18/10 A2975 RMK A01 T01830097  RH  057%=      5-min Rain = 0
KHA2 250429Z 09010KT 18/10 A2975 RMK A01 T01830096  RH  057%=      5-min Rain = 0
KHA2 250430Z 09011KT 18/09 A2975 RMK A01 T01830094  RH  056%=      5-min Rain = 0
KHA2 250431Z 09011KT 18/09 A2975 RMK A01 T01830094  RH  056%=      5-min Rain = 0
KHA2 250432Z 09012KT 18/09 A2975 RMK A01 T01840094  RH  056%=      5-min Rain = 0
KHA2 250433Z 09012KT 18/09 A2975 RMK A01 T01840093  RH  055%=      5-min Rain = 0
KHA2 250434Z 09012KT 18/09 A2975 RMK A01 T01840093  RH  055%=      5-min Rain = 0
KHA2 250435Z 09010KT 18/09 A2975 RMK A01 T01830094  RH  056%=      5-min Rain = 0
KHA2 250436Z 08011KT 18/09 A2975 RMK A01 T01830093  RH  056%=      5-min Rain = 0
KHA2 250437Z 08010KT 18/09 A2975 RMK A01 T01820092  RH  056%=      5-min Rain = 0
KHA2 250438Z 08011KT 18/09 A2975 RMK A01 T01830093  RH  056%=      5-min Rain = 0
KHA2 250439Z 08010KT 18/09 A2975 RMK A01 T01820094  RH  056%=      5-min Rain = 0
KHA2 250440Z 07010KT 18/09 A2975 RMK A01 T01810094  RH  056%=      5-min Rain = 0
KHA2 250441Z 07012KT 18/09 A2975 RMK A01 T01810094  RH  057%=      5-min Rain = 0
KHA2 250442Z 08012KT 18/10 A2975 RMK A01 T01810095  RH  057%=      5-min Rain = 0
KHA2 250443Z 08013KT 18/10 A2975 RMK A01 T01810096  RH  058%=      5-min Rain = 0
KHA2 250444Z 09010KT 18/10 A2975 RMK A01 T01800098  RH  058%=      5-min Rain = 0
KHA2 250445Z 09009KT 18/10 A2976 RMK A01 T01800096  RH  058%=      5-min Rain = 0
KHA2 250446Z 08008KT 18/10 A2976 RMK A01 T01790097  RH  059%=      5-min Rain = 0
KHA2 250447Z 10009G15KT 18/10 A2976 RMK A01 T01790097  RH  059%=      5-min Rain = 0
KHA2 250448Z 10012KT 18/09 A2977 RMK A01 T01780094  RH  058%=      5-min Rain = 0
KHA2 250449Z 11011KT 18/09 A2977 RMK A01 T01780092  RH  057%=      5-min Rain = 0
KHA2 250450Z 10012KT 18/09 A2977 RMK A01 T01770092  RH  057%=      5-min Rain = 0
KHA2 250451Z 09014KT 18/09 A2977 RMK A01 T01760093  RH  058%=      5-min Rain = 0
KHA2 250452Z 08013KT 18/10 A2977 RMK A01 T01760095  RH  059%=      5-min Rain = 0
KHA2 250453Z 08014KT 18/10 A2976 RMK A01 T01750096  RH  060%=      5-min Rain = 0
KHA2 250454Z 08012KT 17/10 A2976 RMK A01 T01740096  RH  060%=      5-min Rain = 0
KHA2 250455Z 08011KT 17/10 A2976 RMK A01 T01740096  RH  060%=      5-min Rain = 0
KHA2 250456Z 09014KT 17/10 A2977 RMK A01 T01730097  RH  061%=      5-min Rain = 0
KHA2 250457Z 10014KT 17/10 A2977 RMK A01 T01730097  RH  061%=      5-min Rain = 0
KHA2 250458Z 10013KT 17/10 A2978 RMK A01 T01720096  RH  061%=      5-min Rain = 0
KHA2 250459Z 09012KT 17/10 A2978 RMK A01 T01720097  RH  061%=      5-min Rain = 0

Page generated in 0.1464 seconds.